Eltham High School

Historical Weather Data

                  Temp     Hi    Low   Out         Wind        Wind    Hi    Hi   Wind   Heat          THSW                Rain  Solar   Solar Hi Solar         UV    Hi     Heat    Cool    In     In          Wind  Wind    ISS   Arc.
  Date    Time     Out   Temp   Temp   Hum    Dew Speed   Dir   Run Speed   Dir  Chill  Index    THW  Index   Bar    Rain  Rate   Rad.  Energy    Rad.    UV   Dose   UV     D-D     D-D    Temp   Hum     ET   Samp   Tx   Recept  Int.
------------------------------------------------------------------------------------------------------------------------------------------------------------------------------------------------------------------------------------------
13/10/18 12:30a    9.6   10.2    9.6    85    7.2   0.0   ---  0.00   0.0   ---    9.6    9.7    9.7    7.7  1035.2  0.00   0.0     0     0.00      0     0.0  0.00   0.0   0.182   0.000   27.3    31    0.00   701    1    100.0   30 
13/10/18  1:00a    9.2    9.6    9.2    87    7.1   0.0   ---  0.00   0.0   ---    9.2    9.2    9.2    7.3  1035.1  0.00   0.0     0     0.00      0     0.0  0.00   0.0   0.191   0.000   27.1    31    0.00   677    1     99.0   30 
13/10/18  1:30a    8.7    9.2    8.6    89    7.0   0.0    SE  0.00  14.5     S    8.7    8.8    8.8    6.9  1035.6  0.00   0.0     0     0.00      0     0.0  0.00   0.0   0.200   0.000   26.9    31    0.00   698    1    100.0   30 
13/10/18  2:00a    8.8    8.9    8.7    89    7.1   0.0   ---  0.00   0.0   ---    8.8    8.9    8.9    6.9  1035.4  0.00   0.0     0     0.00      0     0.0  0.00   0.0   0.199   0.000   26.7    31    0.00   679    1     99.3   30 
13/10/18  2:30a    8.2    8.8    8.2    89    6.5   0.0   ---  0.00   0.0   ---    8.2    8.3    8.3    6.3  1035.4  0.00   0.0     0     0.00      0     0.0  0.00   0.0   0.211   0.000   26.6    31    0.00   701    1    100.0   30 
13/10/18  3:00a    7.4    8.2    7.4    89    5.7   0.0   ---  0.00   0.0   ---    7.4    7.5    7.5    5.5  1035.6  0.00   0.0     0     0.00      0     0.0  0.00   0.0   0.227   0.000   26.4    31    0.00   680    1     99.4   30 
13/10/18  3:30a    7.0    7.4    6.9    91    5.6   0.0   ---  0.00   0.0   ---    7.0    7.1    7.1    5.1  1035.7  0.00   0.0     0     0.00      0     0.0  0.00   0.0   0.236   0.000   26.2    31    0.00   675    1     98.7   30 
13/10/18  4:00a    6.6    7.0    6.6    91    5.2   0.0   ---  0.00   0.0   ---    6.6    6.7    6.7    4.7  1035.9  0.00   0.0     0     0.00      0     0.0  0.00   0.0   0.244   0.000   26.0    31    0.00   699    1    100.0   30 
13/10/18  4:30a    6.3    6.6    6.3    91    5.0   0.0   ---  0.00   0.0   ---    6.3    6.4    6.4    4.4  1036.1  0.00   0.0     0     0.00      0     0.0  0.00   0.0   0.250   0.000   25.7    31    0.00   700    1    100.0   30 
13/10/18  5:00a    6.0    6.3    6.0    92    4.8   0.0   ---  0.00   0.0   ---    6.0    6.0    6.0    4.0  1036.4  0.00   0.0     0     0.00      0     0.0  0.00   0.0   0.257   0.000   25.6    31    0.00   699    1    100.0   30 
13/10/18  5:30a    5.6    6.0    5.6    92    4.4   0.0   ---  0.00   0.0   ---    5.6    5.6    5.6    3.5  1036.7  0.00   0.0     0     0.00      0     0.0  0.00   0.0   0.266   0.000   25.4    30    0.00   696    1    100.0   30 
13/10/18  6:00a    5.3    5.6    5.3    93    4.3   0.0   ---  0.00   0.0   ---    5.3    5.3    5.3    3.4  1037.1  0.00   0.0     8     0.34     16     0.0  0.00   0.0   0.271   0.000   25.2    30    0.00   701    1    100.0   30 
13/10/18  6:30a    6.1    6.1    5.3    94    5.2   0.0   ---  0.00   0.0   ---    6.1    6.1    6.1    4.5  1037.4  0.00   0.0    34     1.46    104     0.0  0.00   0.0   0.256   0.000   25.1    30    0.00   698    1    100.0   30 
13/10/18  7:00a    8.2    8.2    6.1    94    7.3   0.0   ---  0.00   0.0   ---    8.2    8.4    8.4    8.4  1037.7  0.00   0.0   159     6.84    213     0.0  0.00   0.0   0.211   0.000   25.0    30    0.05   700    1    100.0   30 
13/10/18  7:30a   10.6   10.6    8.2    89    8.9   0.0   ---  0.00   0.0   ---   10.6   10.7   10.7   15.6  1037.7  0.00   0.0   277    11.91    338     0.1  0.02   0.6   0.161   0.000   25.1    30    0.00   701    1    100.0   30 
13/10/18  8:00a   13.5   13.5   10.6    77    9.5   0.0   ---  0.00   0.0   ---   13.5   13.2   13.2   19.7  1037.6  0.00   0.0   391    16.82    443     0.8  0.17   1.1   0.101   0.000   25.3    30    0.15   703    1    100.0   30 
13/10/18  8:30a   18.0   18.0   13.5    50    7.4   1.6   NNE  0.80  16.1   NNE   18.0   17.0   17.0   23.9  1037.4  0.00   0.0   495    21.29    543     1.4  0.30   1.7   0.007   0.000   25.6    30    0.00   699    1    100.0   30 
13/10/18  9:00a   19.0   19.0   18.0    46    7.1   6.4   NNE  3.22  20.9    NE   19.0   17.9   17.9   24.9  1037.2  0.00   0.0   589    25.33    631     2.1  0.45   2.4   0.000   0.014   25.9    30    0.33   702    1    100.0   30 
13/10/18  9:30a   19.9   19.9   19.0    45    7.6   3.2   NNE  1.61  16.1   NNE   19.9   18.9   18.9   25.9  1036.8  0.00   0.0   676    29.07    715     2.7  0.58   3.1   0.000   0.032   26.2    30    0.00   698    1    100.0   30 
13/10/18 10:00a   20.4   20.4   19.9    42    7.1   4.8     N  2.41  17.7     E   20.4   19.2   19.2   26.2  1036.6  0.00   0.0   752    32.34    784     3.4  0.73   3.8   0.000   0.044   26.6    30    0.46   699    1    100.0   30 
13/10/18 10:30a   21.2   21.3   20.4    40    7.0   4.8   NNE  2.41  19.3   ENE   21.2   19.7   19.7   26.4  1036.3  0.00   0.0   814    35.01    838     4.1  0.88   4.4   0.000   0.059   26.9    30    0.00   702    1    100.0   30 
13/10/18 11:00a   21.6   21.7   21.1    39    7.1   6.4   NNE  3.22  19.3    NE   21.6   20.2   20.2   26.8  1035.6  0.00   0.0   862    37.07    879     4.7  1.01   4.9   0.000   0.068   27.3    30    0.53   700    1    100.0   30 
13/10/18 11:30a   21.8   21.8   21.6    37    6.5   6.4   NNE  3.22  17.7     N   21.8   20.4   20.4   26.9  1035.2  0.00   0.0   895    38.49    905     5.1  1.09   5.3   0.000   0.073   27.7    30    0.00   700    1    100.0   30 
13/10/18 12:00p   22.5   22.5   21.8    37    7.1   3.2   NNE  1.61  14.5    NE   22.5   21.4   21.4   27.9  1034.7  0.00   0.0   912    39.22    916     5.4  1.16   5.5   0.000   0.087   28.1    29    0.58   700    1    100.0   30 
13/10/18 12:30p   23.3   23.4   22.6    35    7.0   3.2     N  1.61  16.1     N   23.3   22.6   22.6   29.0  1034.3  0.00   0.0   913    39.26    919     5.4  1.16   5.5   0.000   0.104   28.4    29    0.00   699    1    100.0   30 
13/10/18  1:00p   23.8   23.9   23.2    33    6.6   3.2   NNE  1.61  16.1    NW   23.8   23.1   23.1   29.4  1033.9  0.00   0.0   907    39.01    949     5.2  1.11   5.4   0.000   0.115   28.7    29    0.58   703    1    100.0   30 
13/10/18  1:30p   23.8   24.1   23.6    35    7.4   3.2   ENE  1.61  14.5    SE   23.8   23.1   23.1   29.1  1033.5  0.00   0.0   827    35.57    933     4.7  1.01   5.2   0.000   0.113   29.1    29    0.00   700    1    100.0   30 
13/10/18  2:00p   23.8   24.1   23.1    36    7.8   1.6   NNE  0.80  17.7     E   23.8   23.2   23.2   27.9  1033.0  0.00   0.0   470    20.21    967     3.2  0.69   4.7   0.000   0.113   29.3    29    0.43   701    1    100.0   30 
13/10/18  2:30p   24.1   24.1   23.1    35    7.6   1.6   NNE  0.80  17.7     E   24.1   23.4   23.4   28.9  1032.2  0.00   0.0   549    23.61    835     2.9  0.62   4.0   0.000   0.119   29.5    29    0.00   700    1    100.0   30 
13/10/18  3:00p   24.8   24.8   24.2    33    7.4   4.8   NNE  2.41  17.7   ENE   24.8   24.1   24.1   31.6  1032.0  0.00   0.0   777    33.42    823     3.2  0.69   3.6   0.000   0.134   29.7    29    0.43   676    1     98.8   30 
13/10/18  3:30p   24.9   24.9   24.5    34    7.9   4.8    NE  2.41  16.1   NNE   24.9   24.3   24.3   31.2  1031.6  0.00   0.0   641    27.57    714     2.4  0.51   2.8   0.000   0.137   29.9    29    0.00   701    1    100.0   30 
13/10/18  4:00p   23.9   25.2   23.9    35    7.5   4.8   NNE  2.41  16.1    NE   23.9   23.2   23.2   27.7  1031.6  0.00   0.0   334    14.36    619     1.5  0.32   2.1   0.000   0.116   30.2    28    0.36   701    1    100.0   30 
13/10/18  4:30p   24.3   24.4   23.8    34    7.4   4.8     N  2.41  16.1     N   24.3   23.6   23.6   29.4  1031.5  0.00   0.0   418    17.98    508     1.2  0.26   1.4   0.000   0.124   30.4    28    0.00   702    1    100.0   30 
13/10/18  5:00p   23.7   24.4   23.7    34    6.9   6.4   NNE  3.22  17.7     N   23.7   22.9   22.9   27.7  1031.7  0.00   0.0   305    13.12    362     0.8  0.17   1.0   0.000   0.111   30.5    28    0.28   702    1    100.0   30 
13/10/18  5:30p   23.6   23.8   23.6    34    6.8   3.2     N  1.61  14.5     N   23.6   22.9   22.9   25.7  1031.8  0.00   0.0   190     8.17    248     0.2  0.04   0.6   0.000   0.110   30.5    28    0.00   702    1    100.0   30 
13/10/18  6:00p   22.9   23.7   22.9    35    6.6   1.6   NNW  0.80  11.3   NNW   22.9   21.9   21.9   20.7  1032.0  0.00   0.0    63     2.71    125     0.0  0.00   0.0   0.000   0.095   30.4    28    0.13   700    1    100.0   30 
13/10/18  6:30p   22.0   22.9   22.0    39    7.4   0.0   NNW  0.00   4.8   NNW   22.0   20.8   20.8   19.0  1032.3  0.00   0.0    12     0.52     19     0.0  0.00   0.0   0.000   0.076   30.3    28    0.00   701    1    100.0   30 
13/10/18  7:00p   19.7   21.9   19.7    46    7.7   0.0   ---  0.00   0.0   ---   19.7   18.7   18.7   16.8  1032.6  0.00   0.0     0     0.00      0     0.0  0.00   0.0   0.000   0.028   30.1    29    0.03   702    1    100.0   30 
13/10/18  7:30p   17.7   19.7   17.7    53    8.0   0.0   ---  0.00   0.0   ---   17.7   16.8   16.8   14.9  1032.9  0.00   0.0     0     0.00      0     0.0  0.00   0.0   0.014   0.000   29.8    29    0.00   701    1    100.0   30 
13/10/18  8:00p   16.8   17.7   16.8    57    8.2   0.0   ---  0.00   0.0   ---   16.8   16.0   16.0   14.1  1033.1  0.00   0.0     0     0.00      0     0.0  0.00   0.0   0.032   0.000   29.6    29    0.05   702    1    100.0   30 
13/10/18  8:30p   15.4   16.8   15.4    62    8.2   0.0   ---  0.00   0.0   ---   15.4   14.8   14.8   12.9  1033.2  0.00   0.0     0     0.00      0     0.0  0.00   0.0   0.060   0.000   29.3    29    0.00   699    1    100.0   30 
13/10/18  9:00p   14.4   15.4   14.4    66    8.1   0.0   ---  0.00   0.0   ---   14.4   13.8   13.8   11.9  1033.4  0.00   0.0     0     0.00      0     0.0  0.00   0.0   0.082   0.000   29.1    29    0.03   697    1    100.0   30 
13/10/18  9:30p   13.6   14.3   13.6    70    8.2   0.0   ---  0.00   0.0   ---   13.6   13.1   13.1   11.2  1033.3  0.00   0.0     0     0.00      0     0.0  0.00   0.0   0.100   0.000   28.8    29    0.00   702    1    100.0   30 
13/10/18 10:00p   12.8   13.6   12.8    73    8.1   0.0   ---  0.00   0.0   ---   12.8   12.4   12.4   10.6  1033.5  0.00   0.0     0     0.00      0     0.0  0.00   0.0   0.116   0.000   28.5    29    0.03   702    1    100.0   30 
13/10/18 10:30p   12.1   12.8   12.1    75    7.8   0.0   ---  0.00   0.0   ---   12.1   11.8   11.8    9.9  1033.7  0.00   0.0     0     0.00      0     0.0  0.00   0.0   0.131   0.000   28.3    29    0.00   700    1    100.0   30 
13/10/18 11:00p   11.7   12.1   11.7    77    7.8   0.0   ---  0.00   0.0   ---   11.7   11.4   11.4    9.6  1033.8  0.00   0.0     0     0.00      0     0.0  0.00   0.0   0.139   0.000   28.1    30    0.03   701    1    100.0   30 
13/10/18 11:30p   11.7   11.8   11.6    79    8.2   0.0   ---  0.00   0.0   ---   11.7   11.6   11.6    9.7  1033.9  0.00   0.0     0     0.00      0     0.0  0.00   0.0   0.138   0.000   27.8    30    0.00   678    1     99.1   30 
14/10/18 12:00a   12.3   12.3   11.7    76    8.2   0.0   ---  0.00   0.0   ---   12.3   12.1   12.1   10.2  1033.8  0.00   0.0     0     0.00      0     0.0  0.00   0.0   0.125   0.000   27.7    30    0.03   700    1    100.0   30 
14/10/18 12:30a   12.5   12.6   12.3    74    8.0   0.0   ---  0.00   0.0   ---   12.5   12.2   12.2   10.3  1033.5  0.00   0.0     0     0.00      0     0.0  0.00   0.0   0.122   0.000   27.6    30    0.00   701    1    100.0   30 
14/10/18  1:00a   11.9   12.5   11.9    75    7.6   0.0   ---  0.00   0.0   ---   11.9   11.7   11.7    9.8  1033.2  0.00   0.0     0     0.00      0     0.0  0.00   0.0   0.133   0.000   27.4    30    0.03   648    1     94.7   30 
14/10/18  1:30a   11.5   11.9   11.4    78    7.8   0.0   ---  0.00   0.0   ---   11.5   11.3   11.3    9.4  1033.3  0.00   0.0     0     0.00      0     0.0  0.00   0.0   0.142   0.000   27.2    30    0.00   702    1    100.0   30 
14/10/18  2:00a   10.9   11.4   10.9    80    7.6   0.0   ---  0.00   0.0   ---   10.9   10.8   10.8    8.9  1033.1  0.00   0.0     0     0.00      0     0.0  0.00   0.0   0.155   0.000   27.1    30    0.03   701    1    100.0   30 
14/10/18  2:30a   10.3   10.9   10.3    81    7.2   0.0   ---  0.00   0.0   ---   10.3   10.3   10.3    8.3  1032.8  0.00   0.0     0     0.00      0     0.0  0.00   0.0   0.168   0.000   27.0    30    0.00   703    1    100.0   30 
14/10/18  3:00a    9.7   10.3    9.7    84    7.1   0.0   ---  0.00   0.0   ---    9.7    9.8    9.8    7.8  1032.6  0.00   0.0     0     0.00      0     0.0  0.00   0.0   0.179   0.000   26.9    30    0.03   700    1    100.0   30 
14/10/18  3:30a    9.4    9.7    9.4    85    7.0   0.0   ---  0.00   0.0   ---    9.4    9.4    9.4    7.5  1032.9  0.00   0.0     0     0.00      0     0.0  0.00   0.0   0.186   0.000   26.7    30    0.00   701    1    100.0   30 
14/10/18  4:00a    9.2    9.4    9.2    86    6.9   0.0   ---  0.00   0.0   ---    9.2    9.2    9.2    7.3  1033.1  0.00   0.0     0     0.00      0     0.0  0.00   0.0   0.191   0.000   26.6    30    0.00   663    1     96.9   30 
14/10/18  4:30a    8.9    9.2    8.9    87    6.8   0.0   ---  0.00   0.0   ---    8.9    8.9    8.9    7.0  1033.5  0.00   0.0     0     0.00      0     0.0  0.00   0.0   0.197   0.000   26.4    30    0.00   697    1    100.0   30 
14/10/18  5:00a    8.6    8.9    8.6    88    6.7   0.0   ---  0.00   0.0   ---    8.6    8.6    8.6    6.7  1033.6  0.00   0.0     0     0.00      0     0.0  0.00   0.0   0.204   0.000   26.3    30    0.00   700    1    100.0   30 
14/10/18  5:30a    8.4    8.6    8.4    88    6.5   0.0   ---  0.00   0.0   ---    8.4    8.4    8.4    6.5  1033.9  0.00   0.0     0     0.00      0     0.0  0.00   0.0   0.207   0.000   26.1    30    0.00   687    1    100.0   30 
14/10/18  6:00a    8.3    8.3    8.2    89    6.6   0.0   ---  0.00   0.0   ---    8.3    8.4    8.4    6.6  1034.2  0.00   0.0     9     0.39     16     0.0  0.00   0.0   0.209   0.000   26.0    30    0.00   693    1    100.0   30 
14/10/18  6:30a    8.9    8.9    8.2    91    7.5   0.0   ---  0.00   0.0   ---    8.9    9.0    9.0    7.5  1034.4  0.00   0.0    35     1.51    111     0.0  0.00   0.0   0.197   0.000   25.9    30    0.00   700    1    100.0   30 
14/10/18  7:00a   12.0   12.0    8.9    86    9.7   0.0   ---  0.00   0.0   ---   12.0   11.9   11.9   11.8  1034.5  0.00   0.0   144     6.19    232     0.0  0.00   0.0   0.132   0.000   25.9    30    0.05   702    1    100.0   30 
14/10/18  7:30a   17.9   17.9   11.9    63   10.8   1.6   NNW  0.80  14.5     N   17.9   17.6   17.6   22.8  1034.5  0.00   0.0   285    12.26    336     0.3  0.06   0.7   0.008   0.000   26.0    30    0.00   701    1    100.0   30 
14/10/18  8:00a   20.0   20.0   18.0    55   10.7   8.0   NNE  4.02  25.7   NNW   20.0   19.6   19.6   26.0  1034.4  0.00   0.0   388    16.69    436     1.0  0.21   1.2   0.000   0.035   26.2    30    0.20   699    1    100.0   30 
14/10/18  8:30a   20.8   20.8   20.0    52   10.6   9.7   NNE  4.83  29.0   NNE   20.8   20.0   20.0   26.9  1034.2  0.00   0.0   488    20.99    538     1.5  0.32   1.8   0.000   0.051   26.4    30    0.00   700    1    100.0   30 
14/10/18  9:00a   21.4   21.4   20.7    51   10.8   8.0   NNE  4.02  27.4     N   21.4   20.6   20.6   27.6  1034.1  0.00   0.0   582    25.03    643     2.2  0.47   2.5   0.000   0.064   26.7    30    0.38   696    1    100.0   30 
14/10/18  9:30a   22.2   22.2   21.3    50   11.3   8.0   NNE  4.02  30.6   NNW   22.2   21.7   21.7   28.8  1033.9  0.00   0.0   664    28.56    733     2.8  0.60   3.3   0.000   0.081   27.1    30    0.00   702    1    100.0   30 
14/10/18 10:00a   22.5   22.9   22.2    48   10.9   9.7   NNE  4.83  32.2   ENE   22.5   22.0   22.0   28.8  1033.5  0.00   0.0   728    31.31    810     3.6  0.77   4.0   0.000   0.087   27.4    30    0.48   701    1    100.0   30 
14/10/18 10:30a   23.4   23.4   22.4    47   11.4  11.3   NNE  5.63  30.6   NNE   23.4   23.2   23.2   29.2  1033.1  0.00   0.0   738    31.74    875     4.0  0.86   4.8   0.000   0.105   27.8    30    0.00   698    1    100.0   30 
14/10/18 11:00a   24.1   24.2   23.4    46   11.7   9.7   NNE  4.83  32.2   NNW   24.1   23.9   23.9   31.1  1032.7  0.00   0.0   898    38.62    983     5.0  1.07   5.5   0.000   0.119   28.2    30    0.58   700    1    100.0   30 
14/10/18 11:30a   24.7   24.8   24.1    44   11.6   9.7   NNE  4.83  29.0    NE   24.7   24.4   24.4   31.2  1032.3  0.00   0.0   907    39.01   1032     5.4  1.16   5.9   0.000   0.132   28.5    30    0.00   701    1    100.0   30 
14/10/18 12:00p   24.7   25.0   24.6    43   11.2   8.0   NNE  4.02  29.0    NE   24.7   24.3   24.3   30.3  1032.0  0.00   0.0   846    36.38   1032     5.3  1.14   6.1   0.000   0.132   28.9    30    0.61   700    1    100.0   30 
14/10/18 12:30p   25.2   25.3   24.6    41   11.0   9.7   NNE  4.83  27.4   NNE   25.2   24.8   24.8   30.4  1031.6  0.00   0.0   822    35.35    935     5.1  1.09   5.6   0.000   0.144   29.3    30    0.00   701    1    100.0   30 
14/10/18  1:00p   25.1   25.3   25.0    41   10.9   9.7     N  4.83  35.4    NW   25.1   24.7   24.7   30.4  1031.3  0.00   0.0   631    27.14    791     4.1  0.88   4.9   0.000   0.141   29.6    30    0.53   702    1    100.0   30 
14/10/18  1:30p   25.8   25.8   24.9    41   11.5   9.7   NNE  4.83  29.0     N   25.8   25.3   25.3   31.4  1030.9  0.00   0.0   826    35.52   1086     4.9  1.05   5.5   0.000   0.155   29.9    30    0.00   702    1    100.0   30 
14/10/18  2:00p   25.6   26.0   25.3    41   11.4   9.7   NNE  4.83  30.6   ENE   25.6   25.2   25.2   30.9  1030.9  0.00   0.0   597    25.67   1023     3.7  0.79   5.1   0.000   0.152   30.2    30    0.53   701    1    100.0   30 
14/10/18  2:30p   25.6   25.6   25.2    41   11.4   9.7   NNE  4.83  30.6     N   25.6   25.2   25.2   30.8  1030.5  0.00   0.0   546    23.48    738     3.1  0.66   3.6   0.000   0.152   30.5    30    0.00   700    1    100.0   30 
14/10/18  3:00p   25.9   26.1   25.6    40   11.3   8.0   NNE  4.02  27.4   ENE   25.9   25.4   25.4   31.5  1030.2  0.00   0.0   648    27.87    733     3.0  0.64   3.6   0.000   0.157   30.7    30    0.46   702    1    100.0   30 
14/10/18  3:30p   25.7   25.9   25.5    40   11.1   8.0   NNE  4.02  25.7    NE   25.7   25.2   25.2   29.8  1029.9  0.00   0.0   372    16.00    661     2.0  0.43   2.9   0.000   0.153   30.8    30    0.00   700    1    100.0   30 
14/10/18  4:00p   25.6   25.8   25.6    41   11.4   6.4   NNE  3.22  27.4   NNE   25.6   25.2   25.2   28.4  1029.9  0.00   0.0   236    10.15    533     1.2  0.26   2.0   0.000   0.152   30.9    30    0.28   701    1    100.0   30 
14/10/18  4:30p   26.3   26.3   25.6    39   11.3   8.0   NNE  4.02  25.7    NE   26.3   25.8   25.8   31.9  1029.6  0.00   0.0   428    18.41    577     1.1  0.24   1.3   0.000   0.167   31.1    30    0.00   700    1    100.0   30 
14/10/18  5:00p   25.8   26.4   25.8    41   11.6   8.0   NNE  4.02  22.5   NNE   25.8   25.4   25.4   29.9  1029.6  0.00   0.0   290    12.47    515     0.8  0.17   1.2   0.000   0.156   31.2    30    0.30   700    1    100.0   30 
14/10/18  5:30p   25.0   25.8   25.0    42   11.2   8.0   NNE  4.02  24.1    NE   25.0   24.6   24.6   25.4  1029.8  0.00   0.0    77     3.31    121     0.0  0.00   0.5   0.000   0.139   31.2    30    0.00   695    1    100.0   30 
14/10/18  6:00p   24.7   25.0   24.7    43   11.2   3.2   NNE  1.61  17.7    NE   24.7   24.3   24.3   23.6  1029.9  0.00   0.0    56     2.41     62     0.0  0.00   0.0   0.000   0.132   31.2    30    0.10   693    1    100.0   30 
14/10/18  6:30p   24.4   24.7   24.4    44   11.3   1.6   NNE  0.80  12.9   NNE   24.4   24.1   24.1   23.2  1030.3  0.00   0.0    43     1.85     53     0.0  0.00   0.0   0.000   0.126   31.1    30    0.00   699    1    100.0   30 
14/10/18  7:00p   23.7   24.4   23.7    45   11.0   1.6   NNE  0.80  12.9   NNE   23.7   23.4   23.4   21.9  1030.5  0.00   0.0     1     0.04      5     0.0  0.00   0.0   0.000   0.111   30.9    30    0.03   700    1    100.0   30 
14/10/18  7:30p   22.8   23.7   22.8    47   10.9   0.0   NNE  0.00   8.0   NNE   22.8   22.4   22.4   20.9  1030.9  0.00   0.0     0     0.00      0     0.0  0.00   0.0   0.000   0.094   30.8    30    0.00   698    1    100.0   30 
14/10/18  8:00p   20.9   22.8   20.9    52   10.7   0.0   ---  0.00   0.0   ---   20.9   20.1   20.1   18.6  1031.3  0.00   0.0     0     0.00      0     0.0  0.00   0.0   0.000   0.054   30.6    30    0.05   703    1    100.0   30 
14/10/18  8:30p   19.1   20.9   19.1    59   10.9   0.0   ---  0.00   0.0   ---   19.1   18.7   18.7   17.2  1031.6  0.00   0.0     0     0.00      0     0.0  0.00   0.0   0.000   0.016   30.4    30    0.00   698    1    100.0   30 
14/10/18  9:00p   17.8   19.1   17.8    64   10.9   0.0   ---  0.00   0.0   ---   17.8   17.4   17.4   15.9  1031.5  0.00   0.0     0     0.00      0     0.0  0.00   0.0   0.012   0.000   30.2    30    0.03   702    1    100.0   30 
14/10/18  9:30p   16.9   17.8   16.9    68   10.9   0.0   ---  0.00   0.0   ---   16.9   16.6   16.6   15.1  1031.1  0.00   0.0     0     0.00      0     0.0  0.00   0.0   0.030   0.000   29.9    30    0.00   702    1    100.0   30 
14/10/18 10:00p   16.3   16.9   16.3    70   10.8   0.0   ---  0.00   0.0   ---   16.3   15.9   15.9   14.4  1031.3  0.00   0.0     0     0.00      0     0.0  0.00   0.0   0.043   0.000   29.7    30    0.03   700    1    100.0   30 
14/10/18 10:30p   15.6   16.3   15.6    73   10.8   0.0   ---  0.00   0.0   ---   15.6   15.3   15.3   13.8  1031.6  0.00   0.0     0     0.00      0     0.0  0.00   0.0   0.057   0.000   29.5    30    0.00   702    1    100.0   30 
14/10/18 11:00p   15.3   15.6   15.3    76   11.1   0.0   ---  0.00   0.0   ---   15.3   15.1   15.1   13.5  1031.8  0.00   0.0     0     0.00      0     0.0  0.00   0.0   0.064   0.000   29.3    31    0.03   701    1    100.0   30 
14/10/18 11:30p   17.3   17.3   15.2    66   10.9   0.0   NNE  0.00   3.2   NNE   17.3   17.1   17.1   15.5  1032.2  0.00   0.0     0     0.00      0     0.0  0.00   0.0   0.021   0.000   29.1    31    0.00   700    1    100.0   30 
15/10/18 12:00a   20.4   20.4   17.4    55   11.0   1.6   NNE  0.80  20.9   NNW   20.4   19.9   19.9   18.3  1032.2  0.00   0.0     0     0.00      0     0.0  0.00   0.0   0.000   0.043   28.8    31    0.03   699    1    100.0   30 
15/10/18 12:30a   21.3   21.3   20.4    53   11.3   4.8   NNE  2.41  22.5    NE   21.3   20.5   20.5   19.0  1032.0  0.00   0.0     0     0.00      0     0.0  0.00   0.0   0.000   0.061   28.8    31    0.00   700    1    100.0   30 
15/10/18  1:00a   20.7   21.3   20.7    55   11.4   3.2     N  1.61  17.7     N   20.7   20.1   20.1   18.6  1031.8  0.00   0.0     0     0.00      0     0.0  0.00   0.0   0.000   0.050   28.7    31    0.08   699    1    100.0   30 
15/10/18  1:30a   20.3   20.7   20.3    57   11.5   1.6     N  0.80  17.7    NE   20.3   19.9   19.9   18.4  1031.7  0.00   0.0     0     0.00      0     0.0  0.00   0.0   0.000   0.042   28.7    31    0.00   702    1    100.0   30 
15/10/18  2:00a   20.4   20.4   20.3    56   11.3   4.8     N  2.41  17.7    NE   20.4   19.9   19.9   18.4  1031.7  0.00   0.0     0     0.00      0     0.0  0.00   0.0   0.000   0.043   28.7    31    0.05   699    1    100.0   30 
15/10/18  2:30a   20.5   20.5   20.4    55   11.1   8.0   NNE  4.02  25.7     N   20.5   19.9   19.9   18.4  1031.4  0.00   0.0     0     0.00      0     0.0  0.00   0.0   0.000   0.045   28.7    31    0.00   700    1    100.0   30 
15/10/18  3:00a   20.3   20.5   20.3    55   11.0   6.4   NNE  3.22  24.1    NE   20.3   19.8   19.8   18.3  1031.1  0.00   0.0     0     0.00      0     0.0  0.00   0.0   0.000   0.042   28.6    31    0.08   701    1    100.0   30 
15/10/18  3:30a   20.1   20.3   20.1    55   10.8   6.4   NNE  3.22  22.5    NE   20.1   19.7   19.7   18.1  1031.0  0.00   0.0     0     0.00      0     0.0  0.00   0.0   0.000   0.037   28.6    31    0.00   701    1    100.0   30 
15/10/18  4:00a   20.1   20.2   20.0    55   10.7   6.4   NNE  3.22  19.3    NE   20.1   19.6   19.6   18.1  1030.8  0.00   0.0     0     0.00      0     0.0  0.00   0.0   0.000   0.036   28.6    31    0.08   702    1    100.0   30 
15/10/18  4:30a   19.8   20.1   19.8    56   10.7   6.4   NNE  3.22  20.9    NE   19.8   19.4   19.4   17.8  1030.7  0.00   0.0     0     0.00      0     0.0  0.00   0.0   0.000   0.030   28.6    31    0.00   700    1    100.0   30 
15/10/18  5:00a   19.7   19.8   19.7    56   10.6   4.8   NNE  2.41  25.7   NNE   19.7   19.2   19.2   17.7  1030.7  0.00   0.0     0     0.00      0     0.0  0.00   0.0   0.000   0.028   28.5    31    0.08   699    1    100.0   30 
15/10/18  5:30a   19.8   19.8   19.6    55   10.5   8.0   NNE  4.02  33.8    NE   19.8   19.4   19.4   17.8  1030.7  0.00   0.0     0     0.00      0     0.0  0.00   0.0   0.000   0.031   28.5    31    0.00   702    1    100.0   30 
15/10/18  6:00a   19.8   19.8   19.8    55   10.5   6.4   NNE  3.22  27.4     N   19.8   19.4   19.4   17.9  1031.0  0.00   0.0    11     0.47     25     0.0  0.00   0.0   0.000   0.031   28.5    31    0.05   700    1    100.0   30 
15/10/18  6:30a   20.0   20.1   19.8    54   10.4   4.8   NNE  2.41  22.5     N   20.0   19.5   19.5   18.4  1031.3  0.00   0.0    41     1.76     58     0.0  0.00   0.0   0.000   0.035   28.5    31    0.00   701    1    100.0   30 
15/10/18  7:00a   20.1   20.1   20.0    54   10.5   4.8   NNE  2.41  22.5     N   20.1   19.6   19.6   19.3  1031.5  0.00   0.0    95     4.09    178     0.0  0.00   0.0   0.000   0.037   28.5    31    0.08   702    1    100.0   30 
15/10/18  7:30a   20.7   20.7   20.1    52   10.5   4.8   NNE  2.41  20.9     N   20.7   19.9   19.9   23.0  1031.6  0.00   0.0   199     8.56    306     0.3  0.06   0.6   0.000   0.049   28.6    31    0.00   700    1    100.0   30 
15/10/18  8:00a   21.3   21.3   20.7    52   11.1   3.2   NNE  1.61  22.5    NE   21.3   20.6   20.6   24.2  1031.5  0.00   0.0   230     9.89    450     0.8  0.17   1.1   0.000   0.063   28.4    32    0.15   700    1    100.0   30 
15/10/18  8:30a   22.6   22.6   21.3    49   11.3   6.4   NNE  3.22  24.1   NNE   22.6   22.2   22.2   28.2  1031.4  0.00   0.0   439    18.88    594     1.6  0.34   2.0   0.000   0.088   28.4    33    0.00   701    1    100.0   30 
15/10/18  9:00a   22.8   22.9   22.6    50   11.9   8.0   NNE  4.02  22.5    NW   22.8   22.6   22.6   29.3  1031.4  0.00   0.0   559    24.04    621     2.3  0.49   2.6   0.000   0.094   28.4    33    0.36   701    1    100.0   30 
15/10/18  9:30a   23.1   23.5   22.8    50   12.1   9.7   NNE  4.83  35.4     N   23.1   22.8   22.8   28.5  1031.1  0.00   0.0   526    22.62    642     2.6  0.56   2.9   0.000   0.098   28.6    34    0.00   701    1    100.0   30 
15/10/18 10:00a   23.9   23.9   23.1    48   12.2   9.7   NNE  4.83  30.6   NNW   23.9   23.8   23.8   29.5  1030.9  0.00   0.0   630    27.09    773     3.5  0.75   4.1   0.000   0.116   28.7    34    0.43   702    1    100.0   30 
15/10/18 10:30a   24.4   24.6   23.8    47   12.4   8.0   NNE  4.02  25.7     N   24.4   24.3   24.3   30.4  1030.8  0.00   0.0   731    31.44    817     4.2  0.90   4.8   0.000   0.127   28.9    35    0.00   700    1    100.0   30 
15/10/18 11:00a   25.2   25.2   24.4    46   12.8   6.4   NNE  3.22  20.9    NE   25.2   25.0   25.0   30.9  1030.3  0.00   0.0   715    30.75    849     4.6  0.99   5.4   0.000   0.144   29.3    35    0.46   703    1    100.0   30 
15/10/18 11:30a   25.3   25.6   25.2    45   12.5  11.3   NNE  5.63  35.4     N   25.3   25.1   25.1   31.7  1030.1  0.00   0.0   905    38.92    921     5.9  1.26   6.0   0.000   0.146   29.6    35    0.00   699    1    100.0   30 
15/10/18 12:00p   26.1   26.1   25.3    44   12.9  11.3   NNE  5.63  37.0   NNE   26.1   25.8   25.8   32.3  1029.4  0.00   0.0   913    39.26    928     6.2  1.33   6.3   0.000   0.161   29.8    35    0.66   701    1    100.0   30 
15/10/18 12:30p   26.5   26.5   26.0    43   12.9   9.7   NNE  4.83  33.8     N   26.5   26.2   26.2   32.9  1028.9  0.00   0.0   940    40.43   1049     5.6  1.20   6.6   0.000   0.170   30.2    35    0.00   699    1    100.0   30 
15/10/18  1:00p   26.6   26.7   26.4    43   13.0  11.3   NNE  5.63  37.0   NNE   26.6   26.3   26.3   33.0  1028.4  0.00   0.0   937    40.30    976     5.8  1.24   6.3   0.000   0.172   30.4    34    0.63   700    1    100.0   30 
15/10/18  1:30p   26.9   26.9   26.4    42   12.9  11.3   NNE  5.63  35.4     N   26.9   26.5   26.5   32.6  1027.6  0.00   0.0   833    35.82    977     5.2  1.11   5.9   0.000   0.179   30.5    35    0.00   699    1    100.0   30 
15/10/18  2:00p   26.5   26.9   26.4    43   12.9   8.0   NNE  4.02  27.4   NNE   26.5   26.2   26.2   30.8  1027.1  0.00   0.0   444    19.09    631     3.0  0.64   3.9   0.000   0.170   30.6    36    0.51   700    1    100.0   30 
15/10/18  2:30p   26.8   26.8   26.5    42   12.8   9.7   NNE  4.83  33.8    NE   26.8   26.3   26.3   31.0  1026.7  0.00   0.0   421    18.11    485     2.5  0.54   2.9   0.000   0.176   30.5    37    0.00   670    1     98.0   30 
15/10/18  3:00p   26.7   27.2   26.7    41   12.3   9.7   NNE  4.83  29.0    NE   26.7   26.2   26.2   31.0  1026.3  0.00   0.0   416    17.89    594     2.1  0.45   2.7   0.000   0.174   30.4    38    0.36   699    1    100.0   30 
15/10/18  3:30p   26.5   26.7   26.4    42   12.5   8.0   NNE  4.02  22.5   ENE   26.5   26.1   26.1   28.6  1026.3  0.00   0.0   210     9.03    271     1.1  0.24   1.5   0.000   0.170   30.2    39    0.00   701    1    100.0   30 
15/10/18  4:00p   26.4   26.5   26.3    42   12.4   4.8   NNE  2.41  24.1    NE   26.4   26.0   26.0   27.1  1026.6  0.00   0.0   108     4.64    130     0.3  0.06   0.6   0.000   0.168   30.2    39    0.18   701    1    100.0   30 
15/10/18  4:30p   26.5   26.5   26.4    41   12.2   4.8   NNE  2.41  22.5     N   26.5   26.1   26.1   27.8  1026.4  0.00   0.0   137     5.89    171     0.4  0.09   0.6   0.000   0.170   30.4    38    0.00   698    1    100.0   30 
15/10/18  5:00p   26.3   26.6   26.3    42   12.4   3.2   NNE  1.61  19.3     N   26.3   25.9   25.9   26.8  1026.8  0.00   0.0    80     3.44    151     0.0  0.00   0.5   0.000   0.167   30.6    38    0.13   695    1    100.0   30 
15/10/18  5:30p   26.3   26.4   26.3    42   12.4   1.6     N  0.80  14.5     N   26.3   25.9   25.9   26.6  1026.8  0.00   0.0    63     2.71     72     0.0  0.00   0.0   0.000   0.167   31.3    37    0.00   696    1    100.0   30 
15/10/18  6:00p   25.7   26.3   25.7    44   12.6   0.0   NNE  0.00   9.7   NNE   25.7   25.4   25.4   24.3  1026.5  0.00   0.0    20     0.86     46     0.0  0.00   0.0   0.000   0.154   31.7    36    0.05   685    1    100.0   30 
15/10/18  6:30p   25.1   25.7   25.1    45   12.3   0.0   NNE  0.00   8.0    NE   25.1   24.8   24.8   23.4  1026.1  0.00   0.0     4     0.17      9     0.0  0.00   0.0   0.000   0.140   31.9    36    0.00   684    1    100.0   30 
15/10/18  7:00p   24.7   25.1   24.7    47   12.6   0.0    NE  0.00   8.0    NE   24.7   24.5   24.5   23.1  1025.9  0.00   0.0     0     0.00      0     0.0  0.00   0.0   0.000   0.132   32.0    35    0.03   688    1    100.0   30 
15/10/18  7:30p   24.8   24.8   24.6    46   12.4   1.6    NE  0.80  16.1   ENE   24.8   24.6   24.6   23.2  1025.3  0.00   0.0     0     0.00      0     0.0  0.00   0.0   0.000   0.134   32.0    35    0.00   688    1    100.0   30 
15/10/18  8:00p   24.9   25.0   24.8    45   12.1   1.6    NE  0.80  16.1    NE   24.9   24.6   24.6   23.2  1025.1  0.00   0.0     0     0.00      0     0.0  0.00   0.0   0.000   0.137   32.0    35    0.08   698    1    100.0   30 
15/10/18  8:30p   25.9   25.9   24.9    39   10.9   4.8   NNE  2.41  27.4    NE   25.9   25.4   25.4   23.9  1025.7  0.00   0.0     0     0.00      0     0.0  0.00   0.0   0.000   0.159   32.0    35    0.00   702    1    100.0   30 
15/10/18  9:00p   25.8   25.9   25.8    39   10.8   3.2   NNE  1.61  19.3     N   25.8   25.3   25.3   23.8  1025.4  0.00   0.0     0     0.00      0     0.0  0.00   0.0   0.000   0.155   32.0    34    0.10   700    1    100.0   30 
15/10/18  9:30p   25.8   25.8   25.7    38   10.4   6.4   NNE  3.22  25.7    NE   25.8   25.3   25.3   23.8  1024.9  0.00   0.0     0     0.00      0     0.0  0.00   0.0   0.000   0.156   31.9    34    0.00   691    1    100.0   30 
15/10/18 10:00p   25.6   25.8   25.6    38   10.2   4.8   NNE  2.41  20.9     N   25.6   25.0   25.0   23.5  1024.8  0.00   0.0     0     0.00      0     0.0  0.00   0.0   0.000   0.152   31.9    34    0.10   687    1    100.0   30 
15/10/18 10:30p   25.9   25.9   25.6    36    9.7   8.0   NNE  4.02  30.6     N   25.9   25.3   25.3   23.7  1024.6  0.00   0.0     0     0.00      0     0.0  0.00   0.0   0.000   0.159   31.9    34    0.00   686    1    100.0   30 
15/10/18 11:00p   25.9   26.0   25.8    37   10.1  12.9   NNE  6.44  43.5    NE   25.9   25.3   25.0   23.6  1024.0  0.00   0.0     0     0.00      0     0.0  0.00   0.0   0.000   0.159   31.9    33    0.15   685    1    100.0   30 
15/10/18 11:30p   25.7   25.9   25.7    39   10.7   8.0    NE  4.02  33.8    NE   25.7   25.2   25.2   23.7  1022.8  0.00   0.0     0     0.00      0     0.0  0.00   0.0   0.000   0.154   31.8    33    0.00   686    1    100.0   30 
16/10/18 12:00a   25.6   25.7   25.5    40   11.0   1.6   NNE  0.80  17.7   NNE   25.6   25.1   25.1   23.6  1023.8  0.00   0.0     0     0.00      0     0.0  0.00   0.0   0.000   0.150   31.8    33    0.10   687    1    100.0   30 
16/10/18 12:30a   25.5   25.6   25.4    41   11.3   4.8   NNE  2.41  25.7    NE   25.5   25.1   25.1   23.6  1023.4  0.00   0.0     0     0.00      0     0.0  0.00   0.0   0.000   0.149   31.7    33    0.00   684    1    100.0   30 
16/10/18  1:00a   25.3   25.6   25.3    41   11.1   8.0   NNE  4.02  29.0    NE   25.3   24.9   24.9   23.4  1023.5  0.00   0.0     0     0.00      0     0.0  0.00   0.0   0.000   0.146   31.6    33    0.10   688    1    100.0   30 
16/10/18  1:30a   25.3   25.4   25.2    42   11.5   6.4   NNE  3.22  22.5   NNE   25.3   24.9   24.9   23.5  1023.9  0.00   0.0     0     0.00      0     0.0  0.00   0.0   0.000   0.146   31.4    33    0.00   684    1    100.0   30 
16/10/18  2:00a   25.1   25.3   25.1    44   11.9   4.8   NNE  2.41  27.4    NE   25.1   24.7   24.7   23.3  1025.3  0.00   0.0     0     0.00      0     0.0  0.00   0.0   0.000   0.140   31.4    33    0.10   695    1    100.0   30 
16/10/18  2:30a   24.3   25.1   24.3    48   12.6   3.2     N  1.61  27.4   NNE   24.3   24.3   24.3   22.9  1025.9  0.00   0.0     0     0.00      0     0.0  0.00   0.0   0.000   0.125   31.4    33    0.00   698    1    100.0   30 
16/10/18  3:00a   22.8   24.3   22.8    56   13.6   1.6   NNW  0.80  17.7     N   22.8   22.9   22.9   21.5  1026.8  0.00   0.0     0     0.00      0     0.0  0.00   0.0   0.000   0.094   31.3    33    0.08   699    1    100.0   30 
16/10/18  3:30a   22.3   22.9   22.3    60   14.2   1.6   NNE  0.80  17.7   NNW   22.3   22.3   22.3   21.0  1026.6  0.00   0.0     0     0.00      0     0.0  0.00   0.0   0.000   0.083   31.2    33    0.00   701    1    100.0   30 
16/10/18  4:00a   21.5   22.3   21.5    63   14.2   8.0   NNE  4.02  29.0   NNE   21.5   21.3   21.3   20.0  1026.5  0.00   0.0     0     0.00      0     0.0  0.00   0.0   0.000   0.066   31.1    33    0.05   701    1    100.0   30 
16/10/18  4:30a   20.9   21.5   20.9    65   14.1  11.3   NNE  5.63  35.4    NE   20.9   20.8   20.6   19.3  1025.8  0.00   0.0     0     0.00      0     0.0  0.00   0.0   0.000   0.053   30.9    33    0.00   703    1    100.0   30 
16/10/18  5:00a   20.8   20.9   20.7    65   14.0   9.7   NNE  4.83  32.2    NE   20.8   20.7   20.7   19.4  1025.2  0.00   0.0     0     0.00      0     0.0  0.00   0.0   0.000   0.052   30.8    33    0.08   701    1    100.0   30 
16/10/18  5:30a   21.3   21.3   20.8    64   14.2  11.3   NNE  5.63  40.2   ENE   21.3   21.1   21.0   19.7  1025.0  0.00   0.0     0     0.00      0     0.0  0.00   0.0   0.000   0.061   30.8    34    0.00   699    1    100.0   30 
16/10/18  6:00a   20.8   21.3   20.8    66   14.2  11.3   NNE  5.63  30.6    NE   20.8   20.8   20.6   19.3  1024.9  0.00   0.0     0     0.00      0     0.0  0.00   0.0   0.000   0.052   30.7    34    0.08   679    1     99.3   30 
16/10/18  6:30a   21.6   21.6   20.8    61   13.8   6.4   NNE  3.22  27.4     N   21.6   21.4   21.4   20.1  1024.6  0.00   0.0     3     0.13      9     0.0  0.00   0.0   0.000   0.068   30.6    34    0.00   703    1    100.0   30 
16/10/18  7:00a   21.4   21.7   21.4    63   14.1   4.8   NNE  2.41  27.4    NE   21.4   21.2   21.2   20.0  1025.1  0.00   0.0    11     0.47     14     0.0  0.00   0.0   0.000   0.065   30.5    34    0.05   700    1    100.0   30 
16/10/18  7:30a   21.1   21.4   21.1    65   14.2   6.4   NNE  3.22  29.0   NNE   21.1   20.9   20.9   20.3  1026.1  0.00   0.0    15     0.65     18     0.0  0.00   0.0   0.000   0.057   30.3    36    0.00   702    1    100.0   30 
16/10/18  8:00a   20.7   21.1   20.7    67   14.3   8.0   NNE  4.02  37.0     N   20.7   20.7   20.7   20.3  1026.1  0.00   0.0    25     1.08     28     0.0  0.00   0.0   0.000   0.049   29.6    36    0.05   700    1    100.0   30 
16/10/18  8:30a   20.9   20.9   20.6    67   14.5   3.2   NNE  1.61  24.1     N   20.9   20.9   20.9   20.7  1026.5  0.00   0.0    38     1.63     60     0.0  0.00   0.0   0.000   0.053   29.6    38    0.00   700    1    100.0   30 
16/10/18  9:00a   21.0   21.1   20.9    67   14.6   6.4   NNE  3.22  25.7     N   21.0   20.9   20.9   21.6  1026.7  0.00   0.0    83     3.57    104     0.0  0.00   0.5   0.000   0.056   29.5    41    0.08   701    1    100.0   30 
16/10/18  9:30a   21.1   21.1   20.9    67   14.7   6.4   NNE  3.22  30.6    NE   21.1   21.1   21.1   22.0  1026.8  0.00   0.0   111     4.77    137     0.5  0.11   0.7   0.000   0.058   29.6    40    0.00   699    1    100.0   30 
16/10/18 10:00a   21.5   21.5   21.1    66   14.9   6.4   NNE  3.22  33.8   NNW   21.5   21.4   21.4   23.4  1026.6  0.00   0.0   188     8.09    237     1.0  0.21   1.3   0.000   0.066   29.9    40    0.13   701    1    100.0   30 
16/10/18 10:30a   21.4   21.5   21.3    66   14.8  11.3   NNE  5.63  41.8    NE   21.4   21.4   21.3   22.9  1026.5  0.00   0.0   173     7.44    211     1.0  0.21   1.2   0.000   0.065   29.8    39    0.00   701    1    100.0   30 
16/10/18 11:00a   21.4   21.6   21.4    66   14.8   9.7   NNE  4.83  29.0     N   21.4   21.4   21.4   22.9  1026.2  0.00   0.0   175     7.53    209     1.1  0.24   1.3   0.000   0.065   29.7    38    0.15   702    1    100.0   30 
16/10/18 11:30a   22.1   22.1   21.4    64   14.9   6.4   NNE  3.22  27.4   NNE   22.1   22.1   22.1   23.4  1025.6  0.00   0.0   163     7.01    223     1.0  0.21   1.4   0.000   0.078   29.7    38    0.00   700    1    100.0   30 
16/10/18 12:00p   22.2   22.2   22.1    65   15.3   9.7   NNE  4.83  29.0   NNE   22.2   22.3   22.3   24.3  1025.5  0.00   0.0   212     9.12    253     1.3  0.28   1.5   0.000   0.080   29.7    38    0.15   698    1    100.0   30 
16/10/18 12:30p   22.2   22.2   22.1    65   15.3  11.3   NNE  5.63  33.8    NE   22.2   22.3   22.3   24.3  1025.2  0.00   0.0   220     9.46    255     1.4  0.30   1.7   0.000   0.080   29.7    38    0.00   703    1    100.0   30 
16/10/18  1:00p   22.5   22.6   22.2    64   15.3  11.3   NNE  5.63  37.0    NE   22.5   22.7   22.7   25.2  1025.1  0.00   0.0   256    11.01    352     1.7  0.36   2.7   0.000   0.087   29.7    38    0.20   700    1    100.0   30 
16/10/18  1:30p   21.3   22.5   21.3    72   16.0   9.7   NNE  4.83  35.4     N   21.3   21.5   21.5   22.2  1024.8  0.25   0.0   119     5.12    213     0.6  0.13   1.3   0.000   0.061   29.7    38    0.00   700    1    100.0   30 
16/10/18  2:00p   20.9   21.3   20.9    72   15.7   8.0   NNE  4.02  29.0    NE   20.9   21.1   21.1   21.8  1024.8  0.00   0.0   113     4.86    200     0.6  0.13   1.2   0.000   0.053   29.6    38    0.10   699    1    100.0   30 
16/10/18  2:30p   21.1   21.1   20.8    71   15.6   1.6   NNE  0.80  25.7     N   21.1   21.2   21.2   21.4  1024.4  0.00   0.0    74     3.18    107     0.1  0.02   0.5   0.000   0.058   29.7    39    0.00   703    1    100.0   30 
16/10/18  3:00p   21.4   21.4   21.1    70   15.7   1.6     N  0.80  16.1    NE   21.4   21.6   21.6   21.4  1024.1  0.00   0.0    50     2.15     56     0.0  0.00   0.0   0.000   0.064   29.6    38    0.05   702    1    100.0   30 
16/10/18  3:30p   21.8   21.8   21.4    68   15.6   1.6   NNE  0.80  17.7   NNE   21.8   21.9   21.9   22.5  1023.8  0.00   0.0    87     3.74    141     0.2  0.04   0.5   0.000   0.072   29.6    37    0.00   700    1    100.0   30 
16/10/18  4:00p   22.4   22.4   21.8    67   16.0   0.0     N  0.00   9.7     N   22.4   22.7   22.7   24.6  1024.0  0.00   0.0   148     6.36    306     0.3  0.06   1.0   0.000   0.084   29.5    38    0.08   699    1    100.0   30 
16/10/18  4:30p   21.8   22.4   21.8    71   16.3   0.0   NNW  0.00  16.1    NW   21.8   22.2   22.2   22.3  1024.4  0.00   0.0    49     2.11    102     0.0  0.00   0.0   0.000   0.073   28.8    39    0.00   701    1    100.0   30 
16/10/18  5:00p   19.1   21.8   19.1    85   16.5   0.0   WNW  0.00  11.3     W   19.1   19.7   19.7   19.1  1025.2  4.83  39.1    11     0.47     23     0.0  0.00   0.0   0.000   0.016   28.7    39    0.03   702    1    100.0   30 
16/10/18  5:30p   17.6   19.1   17.6    90   16.0   1.6   NNE  0.80  11.3     N   17.6   18.1   18.1   17.4  1024.9  5.59  33.5    10     0.43     12     0.0  0.00   0.0   0.015   0.000   28.5    40    0.00   701    1    100.0   30 
16/10/18  6:00p   16.9   17.6   16.9    91   15.4   0.0   NNE  0.00   9.7   NNE   16.9   17.2   17.2   16.1  1025.2  1.02   5.3     5     0.22      9     0.0  0.00   0.0   0.030   0.000   28.4    40    0.00   703    1    100.0   30 
16/10/18  6:30p   16.8   16.9   16.8    92   15.5   0.0   ---  0.00   0.0   ---   16.8   17.2   17.2   16.0  1025.6  0.51   3.0     0     0.00      0     0.0  0.00   0.0   0.031   0.000   28.2    41    0.00   698    1    100.0   30 
16/10/18  7:00p   16.7   16.8   16.7    93   15.6   0.0   ---  0.00   0.0   ---   16.7   17.1   17.1   15.9  1026.5  0.00   0.0     0     0.00      0     0.0  0.00   0.0   0.034   0.000   28.1    42    0.00   702    1    100.0   30 
16/10/18  7:30p   16.7   16.8   16.7    93   15.5   0.0   ---  0.00   0.0   ---   16.7   17.0   17.0   15.8  1025.4  0.51   1.0     0     0.00      0     0.0  0.00   0.0   0.035   0.000   28.1    43    0.00   700    1    100.0   30 
16/10/18  8:00p   16.4   16.7   16.4    93   15.3   0.0   NNE  0.00   8.0   NNE   16.4   16.8   16.8   15.6  1025.4  0.25   1.0     0     0.00      0     0.0  0.00   0.0   0.039   0.000   27.9    44    0.00   700    1    100.0   30 
16/10/18  8:30p   16.4   16.4   16.3    92   15.1   0.0   NNE  0.00   8.0   NNE   16.4   16.7   16.7   15.5  1024.8  0.00   0.0     0     0.00      0     0.0  0.00   0.0   0.041   0.000   27.9    44    0.00   703    1    100.0   30 
16/10/18  9:00p   16.4   16.5   16.4    91   15.0   0.0   NNE  0.00   8.0   NNE   16.4   16.7   16.7   15.6  1025.4  0.00   0.0     0     0.00      0     0.0  0.00   0.0   0.039   0.000   27.8    45    0.00   701    1    100.0   30 
16/10/18  9:30p   16.2   16.4   16.2    92   14.9   0.0   ---  0.00   0.0   ---   16.2   16.4   16.4   15.3  1025.8  0.00   0.0     0     0.00      0     0.0  0.00   0.0   0.045   0.000   27.8    45    0.00   701    1    100.0   30 
16/10/18 10:00p   16.2   16.2   16.0    90   14.6   0.0   NNE  0.00   9.7   NNE   16.2   16.4   16.4   15.3  1025.9  0.00   0.0     0     0.00      0     0.0  0.00   0.0   0.044   0.000   27.7    45    0.00   700    1    100.0   30 
16/10/18 10:30p   16.4   16.4   16.2    86   14.1   1.6   NNE  0.80  14.5     N   16.4   16.6   16.6   15.4  1025.7  0.00   0.0     0     0.00      0     0.0  0.00   0.0   0.039   0.000   27.6    45    0.00   695    1    100.0   30 
16/10/18 11:00p   15.9   16.4   15.9    86   13.6   0.0     N  0.00   6.4     N   15.9   16.1   16.1   14.8  1025.7  0.00   0.0     0     0.00      0     0.0  0.00   0.0   0.050   0.000   27.6    46    0.00   703    1    100.0   30 
16/10/18 11:30p   15.0   15.9   15.0    89   13.2   0.0   ---  0.00   0.0   ---   15.0   15.1   15.1   13.8  1025.7  0.00   0.0     0     0.00      0     0.0  0.00   0.0   0.069   0.000   27.4    46    0.00   701    1    100.0   30 
17/10/18 12:00a   14.7   15.0   14.7    92   13.4   0.0   ---  0.00   0.0   ---   14.7   14.8   14.8   13.6  1026.1  0.00   0.0     0     0.00      0     0.0  0.00   0.0   0.076   0.000   27.2    46    0.00   702    1    100.0   30 
17/10/18 12:30a   14.7   14.7   14.6    93   13.5   0.0   ---  0.00   0.0   ---   14.7   14.8   14.8   13.6  1026.3  0.00   0.0     0     0.00      0     0.0  0.00   0.0   0.076   0.000   27.1    46    0.00   673    1     98.4   30 
17/10/18  1:00a   14.7   14.8   14.7    93   13.6   0.0   ---  0.00   0.0   ---   14.7   14.9   14.9   13.7  1025.8  0.00   0.0     0     0.00      0     0.0  0.00   0.0   0.075   0.000   27.1    46    0.00   701    1    100.0   30 
17/10/18  1:30a   14.7   14.7   14.6    93   13.5   0.0   ---  0.00   0.0   ---   14.7   14.8   14.8   13.6  1025.9  0.00   0.0     0     0.00      0     0.0  0.00   0.0   0.076   0.000   27.0    46    0.00   697    1    100.0   30 
17/10/18  2:00a   14.7   14.8   14.7    93   13.6   0.0   ---  0.00   0.0   ---   14.7   14.9   14.9   13.7  1025.9  0.00   0.0     0     0.00      0     0.0  0.00   0.0   0.075   0.000   27.0    46    0.00   701    1    100.0   30 
17/10/18  2:30a   14.8   14.8   14.7    94   13.8   0.0   ---  0.00   0.0   ---   14.8   14.9   14.9   13.7  1025.2  0.00   0.0     0     0.00      0     0.0  0.00   0.0   0.074   0.000   26.9    46    0.00   701    1    100.0   30 
17/10/18  3:00a   14.8   14.9   14.7    93   13.7   0.0     N  0.00   1.6     N   14.8   15.0   15.0   13.8  1025.3  0.00   0.0     0     0.00      0     0.0  0.00   0.0   0.073   0.000   26.9    46    0.00   699    1    100.0   30 
17/10/18  3:30a   15.0   15.0   14.8    93   13.9   0.0   ---  0.00   0.0   ---   15.0   15.2   15.2   13.9  1025.4  0.00   0.0     0     0.00      0     0.0  0.00   0.0   0.069   0.000   26.9    46    0.00   701    1    100.0   30 
17/10/18  4:00a   15.2   15.2   15.0    92   13.9   0.0   ---  0.00   0.0   ---   15.2   15.3   15.3   14.1  1025.6  0.00   0.0     0     0.00      0     0.0  0.00   0.0   0.066   0.000   26.8    46    0.00   702    1    100.0   30 
17/10/18  4:30a   15.4   15.4   15.2    91   13.9   0.0     N  0.00   1.6     N   15.4   15.6   15.6   14.3  1025.5  0.51  11.4     0     0.00      0     0.0  0.00   0.0   0.061   0.000   26.8    45    0.00   702    1    100.0   30 
17/10/18  5:00a   15.1   15.4   15.1    93   14.0   0.0   ---  0.00   0.0   ---   15.1   15.3   15.3   14.1  1025.6  0.00   0.0     0     0.00      0     0.0  0.00   0.0   0.067   0.000   26.8    45    0.00   673    1     98.4   30 
17/10/18  5:30a   15.2   15.2   15.1    94   14.3   0.0   ---  0.00   0.0   ---   15.2   15.4   15.4   14.2  1025.9  0.51   5.3     0     0.00      0     0.0  0.00   0.0   0.065   0.000   26.8    45    0.00   701    1    100.0   30 
17/10/18  6:00a   15.3   15.3   15.2    94   14.3   0.0     N  0.00   9.7     N   15.3   15.5   15.5   14.3  1026.1  2.03  27.9     3     0.13     16     0.0  0.00   0.0   0.064   0.000   26.7    45    0.00   701    1    100.0   30 
17/10/18  6:30a   15.3   15.3   15.2    95   14.5   0.0     N  0.00   8.0     N   15.3   15.6   15.6   14.6  1026.5  0.00   0.0    18     0.77     26     0.0  0.00   0.0   0.063   0.000   26.7    45    0.00   702    1    100.0   30 
17/10/18  7:00a   15.4   15.4   15.3    95   14.6   0.0     N  0.00   6.4     N   15.4   15.6   15.6   15.0  1026.8  0.00   0.0    43     1.85     88     0.0  0.00   0.0   0.061   0.000   26.7    45    0.03   702    1    100.0   30 
17/10/18  7:30a   15.6   15.6   15.4    95   14.8   0.0     N  0.00  11.3     N   15.6   15.8   15.8   17.8  1026.6  0.25   0.0   125     5.38    155     0.0  0.00   0.0   0.057   0.000   26.7    45    0.00   701    1    100.0   30 
17/10/18  8:00a   16.0   16.0   15.6    95   15.2   0.0   ---  0.00   0.0   ---   16.0   16.3   16.3   18.5  1026.7  0.00   0.0   141     6.06    165     0.2  0.04   0.7   0.049   0.000   26.1    42    0.08   678    1     99.1   30 
17/10/18  8:30a   16.6   16.6   16.0    93   15.4   0.0     N  0.00   9.7     N   16.6   16.9   16.9   20.8  1026.8  0.00   0.0   254    10.92    591     1.0  0.21   1.3   0.037   0.000   25.8    43    0.00   701    1    100.0   30 
17/10/18  9:00a   18.1   18.1   16.6    89   16.2   0.0     N  0.00   8.0     N   18.1   18.6   18.6   24.0  1027.2  0.00   0.0   408    17.55    742     1.8  0.39   2.5   0.006   0.000   25.8    42    0.18   702    1    100.0   30 
17/10/18  9:30a   18.5   18.9   18.1    82   15.4   0.0   NNE  0.00   8.0   NNE   18.5   18.9   18.9   22.6  1027.1  0.00   0.0   285    12.26    962     1.5  0.32   2.9   0.000   0.003   26.2    46    0.00   701    1    100.0   30 
17/10/18 10:00a   20.1   20.1   18.4    71   14.6   3.2   NNE  1.61  20.9    NE   20.1   20.4   20.4   25.6  1026.8  0.00   0.0   456    19.61    972     2.9  0.62   4.3   0.000   0.036   26.9    49    0.25   700    1    100.0   30 
17/10/18 10:30a   20.3   20.3   19.7    67   14.0   4.8   NNE  2.41  24.1    NE   20.3   20.4   20.4   25.3  1026.6  0.00   0.0   441    18.97    997     3.1  0.66   5.1   0.000   0.042   27.6    50    0.00   684    1    100.0   30 
17/10/18 11:00a   21.2   21.2   20.3    62   13.6   6.4   NNE  3.22  25.7     N   21.2   20.9   20.9   28.0  1026.1  0.00   0.0   892    38.36   1081     5.0  1.07   6.0   0.000   0.060   28.1    48    0.41   699    1    100.0   30 
17/10/18 11:30a   21.3   21.4   21.1    60   13.2   6.4     N  3.22  25.7   NNE   21.3   20.9   20.9   26.5  1025.7  0.00   0.0   568    24.43   1255     4.4  0.94   6.4   0.000   0.063   28.3    46    0.00   702    1    100.0   30 
17/10/18 12:00p   21.7   21.7   21.1    58   13.1   6.4   NNE  3.22  29.0   NNE   21.7   21.3   21.3   26.4  1025.3  0.00   0.0   520    22.36   1053     4.3  0.92   6.3   0.000   0.071   28.4    45    0.41   700    1    100.0   30 
17/10/18 12:30p   21.6   22.0   21.6    57   12.7   9.7   NNE  4.83  29.0    NE   21.6   21.1   21.1   26.9  1024.9  0.00   0.0   848    36.47   1143     5.1  1.09   6.4   0.000   0.067   28.5    44    0.00   701    1    100.0   30 
17/10/18  1:00p   21.2   21.7   21.2    59   12.9   4.8     N  2.41  19.3     N   21.2   20.8   20.8   23.8  1024.7  0.00   0.0   300    12.90    510     2.6  0.56   5.1   0.000   0.060   28.6    44    0.41   702    1    100.0   30 
17/10/18  1:30p   21.4   21.4   21.1    56   12.2   3.2     N  1.61  24.1   NNE   21.4   20.8   20.8   23.9  1024.3  0.00   0.0   309    13.29    415     2.1  0.45   2.6   0.000   0.064   28.6    43    0.00   698    1    100.0   30 
17/10/18  2:00p   21.9   22.3   21.4    52   11.6   4.8   NNW  2.41  29.0   NNE   21.9   21.3   21.3   26.0  1024.0  0.00   0.0   453    19.48    659     3.2  0.69   5.5   0.000   0.074   28.7    43    0.28   701    1    100.0   30 
17/10/18  2:30p   21.2   21.9   21.2    56   12.1   6.4   NNE  3.22  24.1   NNE   21.2   20.6   20.6   23.4  1023.8  0.00   0.0   269    11.57    325     1.5  0.32   1.9   0.000   0.060   28.8    43    0.00   701    1    100.0   30 
17/10/18  3:00p   21.6   21.6   21.2    53   11.6   6.4     N  3.22  27.4    NE   21.6   20.9   20.9   24.7  1023.7  0.00   0.0   329    14.15    401     1.7  0.36   2.8   0.000   0.068   28.8    42    0.23   698    1    100.0   30 
17/10/18  3:30p   22.2   22.4   21.6    51   11.6   4.8   NNW  2.41  27.4   NNE   22.2   21.8   21.8   28.0  1023.5  0.00   0.0   600    25.80    853     2.4  0.51   3.2   0.000   0.081   28.8    42    0.00   700    1    100.0   30 
17/10/18  4:00p   21.5   22.2   21.3    54   11.8   4.8     N  2.41  22.5     N   21.5   20.8   20.8   25.6  1023.6  0.00   0.0   356    15.31    628     1.5  0.32   2.0   0.000   0.066   28.8    41    0.30   703    1    100.0   30 
17/10/18  4:30p   20.5   21.8   20.5    56   11.4   8.0   NNW  4.02  24.1   NNW   20.5   20.0   20.0   24.1  1023.7  0.00   0.0   272    11.70    622     1.0  0.21   1.5   0.000   0.045   28.7    40    0.00   702    1    100.0   30 
17/10/18  5:00p   20.0   20.5   20.0    60   12.0   1.6     N  0.80  22.5   NNW   20.0   19.8   19.8   21.5  1023.9  0.00   0.0   118     5.07    176     0.2  0.04   0.7   0.000   0.035   28.4    39    0.15   700    1    100.0   30 
17/10/18  5:30p   20.2   20.2   20.0    60   12.2   1.6     N  0.80  14.5     N   20.2   19.9   19.9   21.3  1023.9  0.00   0.0   101     4.34    167     0.0  0.00   0.0   0.000   0.038   28.2    39    0.00   702    1    100.0   30 
17/10/18  6:00p   19.7   20.2   19.7    61   12.0   0.0     N  0.00   9.7     N   19.7   19.6   19.6   18.6  1024.2  0.00   0.0    46     1.98     70     0.0  0.00   0.0   0.000   0.029   28.2    40    0.05   702    1    100.0   30 
17/10/18  6:30p   19.2   19.7   19.2    64   12.2   0.0   NNW  0.00   9.7   NNW   19.2   19.1   19.1   17.8  1024.6  0.00   0.0    18     0.77     42     0.0  0.00   0.0   0.000   0.019   28.2    40    0.00   701    1    100.0   30 
17/10/18  7:00p   18.6   19.2   18.6    66   12.1   1.6   NNE  0.80  14.5   NNE   18.6   18.5   18.5   17.0  1025.0  0.00   0.0     0     0.00      0     0.0  0.00   0.0   0.000   0.006   28.1    40    0.03   700    1    100.0   30 
17/10/18  7:30p   18.0   18.6   18.0    68   12.0   0.0     N  0.00  16.1   NNE   18.0   17.9   17.9   16.4  1025.3  0.00   0.0     0     0.00      0     0.0  0.00   0.0   0.007   0.000   28.1    40    0.00   701    1    100.0   30 
17/10/18  8:00p   17.7   18.0   17.7    70   12.1   0.0     N  0.00  11.3     N   17.7   17.6   17.6   16.1  1025.7  0.00   0.0     0     0.00      0     0.0  0.00   0.0   0.014   0.000   28.1    40    0.03   701    1    100.0   30 
17/10/18  8:30p   17.4   17.7   17.4    72   12.3   0.0     N  0.00  11.3   NNE   17.4   17.3   17.3   15.8  1025.9  0.00   0.0     0     0.00      0     0.0  0.00   0.0   0.019   0.000   27.9    40    0.00   700    1    100.0   30 
17/10/18  9:00p   17.3   17.4   17.3    73   12.4   1.6   NNW  0.80  16.1    NE   17.3   17.3   17.3   15.8  1026.0  0.00   0.0     0     0.00      0     0.0  0.00   0.0   0.021   0.000   27.9    40    0.03   702    1    100.0   30 
17/10/18  9:30p   17.2   17.3   17.2    74   12.5   1.6     N  0.80  16.1    NE   17.2   17.2   17.2   15.7  1025.8  0.00   0.0     0     0.00      0     0.0  0.00   0.0   0.023   0.000   27.9    40    0.00   702    1    100.0   30 
17/10/18 10:00p   17.2   17.2   17.2    75   12.7   1.6     N  0.80  16.1     N   17.2   17.1   17.1   15.6  1025.9  0.00   0.0     0     0.00      0     0.0  0.00   0.0   0.024   0.000   27.9    39    0.03   703    1    100.0   30 
17/10/18 10:30p   17.1   17.2   17.1    75   12.6   0.0   NNE  0.00  12.9     N   17.1   17.0   17.0   15.5  1025.7  0.00   0.0     0     0.00      0     0.0  0.00   0.0   0.027   0.000   27.8    40    0.00   701    1    100.0   30 
17/10/18 11:00p   16.7   17.1   16.7    78   12.9   0.0     N  0.00  11.3   NNE   16.7   16.7   16.7   15.3  1025.6  0.00   0.0     0     0.00      0     0.0  0.00   0.0   0.034   0.000   27.9    39    0.03   701    1    100.0   30 
17/10/18 11:30p   15.6   16.7   15.6    87   13.5   0.0   NNE  0.00  11.3   NNE   15.6   15.7   15.7   14.3  1025.5  0.25   0.0     0     0.00      0     0.0  0.00   0.0   0.057   0.000   27.9    39    0.00   700    1    100.0   30 
18/10/18 12:00a   15.4   15.7   15.4    89   13.6   0.0   ---  0.00   0.0   ---   15.4   15.5   15.5   14.1  1025.3  0.00   0.0     0     0.00      0     0.0  0.00   0.0   0.061   0.000   27.8    40    0.00   701    1    100.0   30 
18/10/18 12:30a   15.2   15.4   15.2    90   13.5   0.0   ---  0.00   0.0   ---   15.2   15.3   15.3   13.8  1025.1  0.00   0.0     0     0.00      0     0.0  0.00   0.0   0.066   0.000   27.8    40    0.00   700    1    100.0   30 
18/10/18  1:00a   15.3   15.3   15.1    88   13.3   0.0   NNE  0.00   9.7   NNE   15.3   15.4   15.4   13.9  1024.9  0.00   0.0     0     0.00      0     0.0  0.00   0.0   0.064   0.000   27.8    40    0.00   698    1    100.0   30 
18/10/18  1:30a   15.6   15.6   15.3    85   13.0   0.0     N  0.00   8.0     N   15.6   15.6   15.6   14.2  1024.9  0.00   0.0     0     0.00      0     0.0  0.00   0.0   0.058   0.000   27.8    40    0.00   702    1    100.0   30 
18/10/18  2:00a   15.8   15.8   15.6    83   12.9   0.0   NNW  0.00  12.9   NNE   15.8   15.9   15.9   14.4  1024.8  0.00   0.0     0     0.00      0     0.0  0.00   0.0   0.052   0.000   27.8    40    0.00   700    1    100.0   30 
18/10/18  2:30a   15.8   15.9   15.8    83   12.9   0.0     N  0.00  11.3    NE   15.8   15.8   15.8   14.4  1024.7  0.25   0.0     0     0.00      0     0.0  0.00   0.0   0.053   0.000   27.8    40    0.00   703    1    100.0   30 
18/10/18  3:00a   15.2   15.8   15.2    86   12.9   0.0     N  0.00   1.6     N   15.2   15.3   15.3   13.8  1024.7  0.25   0.0     0     0.00      0     0.0  0.00   0.0   0.065   0.000   27.8    40    0.03   699    1    100.0   30 
18/10/18  3:30a   14.9   15.2   14.9    87   12.7   0.0     N  0.00   6.4     N   14.9   14.9   14.9   13.4  1024.8  0.00   0.0     0     0.00      0     0.0  0.00   0.0   0.072   0.000   27.8    40    0.00   701    1    100.0   30 
18/10/18  4:00a   14.8   14.9   14.8    88   12.8   0.0     N  0.00   6.4     N   14.8   14.8   14.8   13.4  1025.0  0.00   0.0     0     0.00      0     0.0  0.00   0.0   0.074   0.000   27.8    40    0.00   700    1    100.0   30 
18/10/18  4:30a   15.1   15.1   14.8    85   12.6   0.0   NNW  0.00  12.9   NNW   15.1   15.1   15.1   13.6  1025.2  0.00   0.0     0     0.00      0     0.0  0.00   0.0   0.068   0.000   27.8    40    0.00   700    1    100.0   30 
18/10/18  5:00a   15.1   15.1   15.0    85   12.6   0.0     N  0.00  11.3     N   15.1   15.1   15.1   13.6  1025.5  0.00   0.0     0     0.00      0     0.0  0.00   0.0   0.068   0.000   27.8    40    0.00   701    1    100.0   30 
18/10/18  5:30a   15.1   15.2   15.1    84   12.4   1.6     N  0.80  12.9     N   15.1   15.1   15.1   13.6  1025.7  0.00   0.0     0     0.00      0     0.0  0.00   0.0   0.067   0.000   27.8    39    0.00   701    1    100.0   30 
18/10/18  6:00a   15.2   15.2   15.1    82   12.1   1.6     N  0.80  16.1   NNW   15.2   15.1   15.1   13.6  1026.2  0.00   0.0     2     0.09      5     0.0  0.00   0.0   0.066   0.000   27.8    40    0.00   701    1    100.0   30 
18/10/18  6:30a   15.0   15.2   15.0    83   12.1   0.0     N  0.00  16.1   NNE   15.0   14.9   14.9   13.5  1026.6  0.00   0.0     7     0.30     12     0.0  0.00   0.0   0.069   0.000   27.7    40    0.00   701    1    100.0   30 
18/10/18  7:00a   14.6   15.0   14.6    87   12.4   0.0   NNE  0.00  11.3     N   14.6   14.6   14.6   13.3  1027.1  1.02  12.2    18     0.77     25     0.0  0.00   0.0   0.079   0.000   27.7    40    0.00   701    1    100.0   30 
18/10/18  7:30a   14.3   14.6   14.3    89   12.5   0.0   NNE  0.00  11.3   NNE   14.3   14.3   14.3   14.2  1027.1  0.25   1.3    35     1.51     53     0.0  0.00   0.0   0.084   0.000   27.7    40    0.00   702    1    100.0   30 
18/10/18  8:00a   14.4   14.4   14.2    88   12.4   1.6   NNE  0.80  11.3   NNE   14.4   14.4   14.4   14.6  1027.3  0.00   0.0    53     2.28     70     0.0  0.00   0.0   0.082   0.000   27.1    41    0.03   702    1    100.0   30 
18/10/18  8:30a   14.7   14.7   14.4    85   12.2   0.0     N  0.00  12.9     N   14.7   14.7   14.7   15.0  1027.4  0.00   0.0    65     2.80     84     0.0  0.00   0.0   0.075   0.000   26.9    42    0.00   702    1    100.0   30 
18/10/18  9:00a   15.4   15.4   14.7    82   12.4   1.6     N  0.80  17.7     N   15.4   15.4   15.4   16.5  1027.7  0.00   0.0   113     4.86    155     0.2  0.04   0.6   0.060   0.000   26.9    43    0.05   702    1    100.0   30 
18/10/18  9:30a   16.1   16.1   15.4    79   12.4   3.2     N  1.61  20.9   NNE   16.1   16.0   16.0   18.1  1027.8  0.00   0.0   191     8.21    243     1.0  0.21   1.3   0.047   0.000   27.0    44    0.00   699    1    100.0   30 
18/10/18 10:00a   16.9   16.9   16.1    76   12.7   4.8     N  2.41  22.5   NNW   16.9   16.9   16.9   20.9  1027.6  0.00   0.0   352    15.14    432     2.0  0.43   2.4   0.029   0.000   27.1    44    0.15   701    1    100.0   30 
18/10/18 10:30a   17.7   17.7   16.9    73   12.8   4.8     N  2.41  25.7   NNW   17.7   17.6   17.6   22.1  1027.5  0.00   0.0   418    17.98    529     2.6  0.56   3.3   0.014   0.000   27.2    45    0.00   702    1    100.0   30 
18/10/18 11:00a   18.3   18.3   17.6    70   12.7   4.8   NNW  2.41  25.7   NNE   18.3   18.3   18.3   23.2  1027.4  0.00   0.0   474    20.38    633     3.3  0.71   4.4   0.001   0.000   27.4    44    0.25   698    1    100.0   30 
18/10/18 11:30a   17.9   18.3   17.6    72   12.8   4.8   NNE  2.41  22.5   NNE   17.9   17.9   17.9   21.3  1027.4  0.00   0.0   326    14.02    443     2.4  0.51   3.1   0.008   0.000   27.7    43    0.00   679    1     99.3   30 
18/10/18 12:00p   18.1   18.1   17.8    71   12.7   4.8   NNE  2.41  24.1    NE   18.1   18.1   18.1   21.4  1027.2  0.00   0.0   336    14.45    504     2.7  0.58   5.1   0.006   0.000   27.8    43    0.20   699    1    100.0   30 
18/10/18 12:30p   18.6   19.1   18.1    69   12.8   4.8     N  2.41  24.1    NW   18.6   18.6   18.6   22.2  1027.0  0.00   0.0   359    15.44    918     3.2  0.69   6.6   0.000   0.006   27.8    43    0.00   697    1    100.0   30 
18/10/18  1:00p   18.8   18.8   18.3    67   12.6   3.2     N  1.61  24.1   NNW   18.8   18.8   18.8   20.3  1026.7  0.00   0.0   189     8.13    424     1.9  0.41   6.2   0.000   0.010   27.8    43    0.23   702    1    100.0   30 
18/10/18  1:30p   19.2   19.6   18.8    64   12.2   4.8     N  2.41  30.6   NNE   19.2   19.1   19.1   21.7  1026.7  0.00   0.0   263    11.31    508     2.1  0.45   5.7   0.000   0.019   27.9    42    0.00   657    1     96.1   30 
18/10/18  2:00p   19.4   19.4   19.2    66   12.9   1.6     N  0.80  19.3   NNW   19.4   19.5   19.5   22.4  1026.6  0.00   0.0   280    12.04    443     1.9  0.41   2.8   0.000   0.023   27.9    42    0.18   702    1    100.0   30 
18/10/18  2:30p   19.0   19.6   18.9    68   13.0   4.8     N  2.41  24.1   NNW   19.0   19.1   19.1   21.1  1026.6  0.00   0.0   208     8.95    422     1.3  0.28   2.7   0.000   0.014   28.1    42    0.00   702    1    100.0   30 
18/10/18  3:00p   19.4   19.4   19.0    64   12.4   4.8   NNW  2.41  20.9   NNW   19.4   19.3   19.3   20.9  1026.8  0.00   0.0   168     7.22    214     1.0  0.21   1.3   0.000   0.022   28.1    41    0.13   698    1    100.0   30 
18/10/18  3:30p   19.4   19.4   19.4    64   12.4   1.6   NNW  0.80  19.3    NW   19.4   19.3   19.3   21.6  1026.7  0.00   0.0   201     8.64    250     1.0  0.21   1.2   0.000   0.022   28.2    41    0.00   701    1    100.0   30 
18/10/18  4:00p   19.3   19.4   19.1    65   12.5   3.2   NNW  1.61  27.4     N   19.3   19.2   19.2   21.5  1026.8  0.00   0.0   182     7.83    221     0.8  0.17   0.9   0.000   0.020   28.5    40    0.13   701    1    100.0   30 
18/10/18  4:30p   19.3   19.6   19.3    63   12.1   3.2   NNW  1.61  25.7   WNW   19.3   19.2   19.2   21.3  1026.9  0.00   0.0   152     6.54    248     0.6  0.13   0.9   0.000   0.021   28.4    40    0.00   703    1    100.0   30 
18/10/18  5:00p   19.2   19.4   19.2    64   12.2   1.6   NNW  0.80  20.9   NNW   19.2   19.1   19.1   19.8  1027.2  0.00   0.0    78     3.35     93     0.0  0.00   0.0   0.000   0.017   28.5    40    0.08   702    1    100.0   30 
18/10/18  5:30p   19.0   19.2   19.0    65   12.3   1.6   NNW  0.80  14.5     N   19.0   18.9   18.9   19.3  1027.5  0.00   0.0    54     2.32     84     0.0  0.00   0.0   0.000   0.014   28.5    39    0.00   702    1    100.0   30 
18/10/18  6:00p   18.7   19.0   18.7    66   12.2   1.6   NNW  0.80  17.7    NW   18.7   18.6   18.6   17.6  1027.9  0.00   0.0    25     1.08     37     0.0  0.00   0.0   0.000   0.008   28.5    39    0.03   699    1    100.0   30 
18/10/18  6:30p   18.4   18.7   18.4    67   12.2   0.0     N  0.00  12.9   NNW   18.4   18.3   18.3   17.0  1028.3  0.00   0.0     7     0.30     12     0.0  0.00   0.0   0.000   0.002   28.4    39    0.00   703    1    100.0   30 
18/10/18  7:00p   18.3   18.5   18.3    68   12.3   0.0     N  0.00  11.3     N   18.3   18.2   18.2   16.8  1028.8  0.00   0.0     0     0.00      0     0.0  0.00   0.0   0.001   0.000   28.4    39    0.00   702    1    100.0   30 
18/10/18  7:30p   18.1   18.3   18.1    69   12.3   0.0     N  0.00   9.7     N   18.1   17.9   17.9   16.6  1029.1  0.00   0.0     0     0.00      0     0.0  0.00   0.0   0.006   0.000   28.4    39    0.00   697    1    100.0   30 
18/10/18  8:00p   17.9   18.1   17.9    70   12.3   0.0     N  0.00   6.4     N   17.9   17.8   17.8   16.4  1029.2  0.00   0.0     0     0.00      0     0.0  0.00   0.0   0.009   0.000   28.4    39    0.03   701    1    100.0   30 
18/10/18  8:30p   17.8   17.9   17.8    69   12.1   0.0     N  0.00   8.0     N   17.8   17.7   17.7   16.3  1029.5  0.00   0.0     0     0.00      0     0.0  0.00   0.0   0.010   0.000   28.4    39    0.00   699    1    100.0   30 
18/10/18  9:00p   17.7   17.8   17.7    70   12.1   0.0   ---  0.00   0.0   ---   17.7   17.6   17.6   16.2  1029.6  0.00   0.0     0     0.00      0     0.0  0.00   0.0   0.014   0.000   28.4    39    0.03   703    1    100.0   30 
18/10/18  9:30p   17.7   17.7   17.6    70   12.1   0.0     N  0.00   9.7     N   17.7   17.6   17.6   16.2  1029.7  0.00   0.0     0     0.00      0     0.0  0.00   0.0   0.014   0.000   28.3    38    0.00   699    1    100.0   30 
18/10/18 10:00p   17.3   17.7   17.3    72   12.2   0.0   ---  0.00   0.0   ---   17.3   17.2   17.2   15.8  1029.8  0.00   0.0     0     0.00      0     0.0  0.00   0.0   0.021   0.000   28.3    38    0.03   701    1    100.0   30 
18/10/18 10:30p   16.8   17.3   16.8    74   12.1   0.0   ---  0.00   0.0   ---   16.8   16.7   16.7   15.3  1029.9  0.00   0.0     0     0.00      0     0.0  0.00   0.0   0.032   0.000   28.3    38    0.00   702    1    100.0   30 
18/10/18 11:00p   16.8   16.8   16.7    74   12.2   0.0   ---  0.00   0.0   ---   16.8   16.7   16.7   15.3  1029.8  0.00   0.0     0     0.00      0     0.0  0.00   0.0   0.031   0.000   28.3    38    0.03   700    1    100.0   30 
18/10/18 11:30p   16.3   16.8   16.3    75   11.8   0.0   ---  0.00   0.0   ---   16.3   16.1   16.1   14.7  1029.7  0.00   0.0     0     0.00      0     0.0  0.00   0.0   0.043   0.000   28.3    38    0.00   674    1     98.5   30 
19/10/18 12:00a   15.7   16.3   15.7    77   11.6   0.0   ---  0.00   0.0   ---   15.7   15.5   15.5   14.1  1029.5  0.00   0.0     0     0.00      0     0.0  0.00   0.0   0.056   0.000   28.4    38    0.03   700    1    100.0   30 
19/10/18 12:30a   15.0   15.7   15.0    80   11.6   0.0   ---  0.00   0.0   ---   15.0   14.9   14.9   13.4  1029.2  0.00   0.0     0     0.00      0     0.0  0.00   0.0   0.069   0.000   28.2    38    0.00   698    1    100.0   30 
19/10/18  1:00a   13.8   15.0   13.8    82   10.8   0.0   ---  0.00   0.0   ---   13.8   13.7   13.7   12.2  1028.8  0.00   0.0     0     0.00      0     0.0  0.00   0.0   0.095   0.000   28.2    38    0.03   701    1    100.0   30 
19/10/18  1:30a   13.2   13.8   13.2    85   10.8   0.0   ---  0.00   0.0   ---   13.2   13.2   13.2   11.7  1028.5  0.00   0.0     0     0.00      0     0.0  0.00   0.0   0.106   0.000   28.1    38    0.00   700    1    100.0   30 
19/10/18  2:00a   12.7   13.2   12.7    87   10.6   0.0   ---  0.00   0.0   ---   12.7   12.7   12.7   11.2  1028.4  0.00   0.0     0     0.00      0     0.0  0.00   0.0   0.118   0.000   28.1    38    0.00   676    1     98.8   30 
19/10/18  2:30a   12.2   12.7   12.2    88   10.2   0.0   ---  0.00   0.0   ---   12.2   12.2   12.2   10.7  1028.2  0.00   0.0     0     0.00      0     0.0  0.00   0.0   0.128   0.000   27.8    38    0.00   699    1    100.0   30 
19/10/18  3:00a   11.8   12.2   11.8    90   10.2   0.0   ---  0.00   0.0   ---   11.8   11.9   11.9   10.4  1028.0  0.00   0.0     0     0.00      0     0.0  0.00   0.0   0.135   0.000   27.8    38    0.00   701    1    100.0   30 
19/10/18  3:30a   11.3   11.8   11.3    91    9.9   0.0   ---  0.00   0.0   ---   11.3   11.4   11.4    9.9  1027.9  0.00   0.0     0     0.00      0     0.0  0.00   0.0   0.146   0.000   27.7    38    0.00   681    1     99.6   30 
19/10/18  4:00a   10.9   11.3   10.9    91    9.5   0.0   ---  0.00   0.0   ---   10.9   11.1   11.1    9.6  1027.9  0.00   0.0     0     0.00      0     0.0  0.00   0.0   0.154   0.000   27.4    38    0.00   701    1    100.0   30 
19/10/18  4:30a   10.6   10.9   10.6    92    9.4   0.0   ---  0.00   0.0   ---   10.6   10.8   10.8    9.3  1027.8  0.00   0.0     0     0.00      0     0.0  0.00   0.0   0.161   0.000   27.3    38    0.00   701    1    100.0   30 
19/10/18  5:00a    9.9   10.6    9.9    92    8.6   0.0   ---  0.00   0.0   ---    9.9   10.1   10.1    8.6  1028.3  0.00   0.0     0     0.00      0     0.0  0.00   0.0   0.176   0.000   27.2    38    0.00   701    1    100.0   30 
19/10/18  5:30a    9.3    9.9    9.3    92    8.1   0.0   ---  0.00   0.0   ---    9.3    9.6    9.6    8.0  1028.7  0.00   0.0     1     0.04      5     0.0  0.00   0.0   0.188   0.000   27.0    37    0.00   700    1    100.0   30 
19/10/18  6:00a    9.3    9.3    9.2    93    8.2   0.0   ---  0.00   0.0   ---    9.3    9.5    9.5    8.1  1028.9  0.00   0.0    13     0.56     19     0.0  0.00   0.0   0.189   0.000   26.9    37    0.00   700    1    100.0   30 
19/10/18  6:30a   10.1   10.1    9.3    95    9.3   0.0   ---  0.00   0.0   ---   10.1   10.4   10.4    9.4  1028.6  0.00   0.0    42     1.81    135     0.0  0.00   0.0   0.171   0.000   26.7    37    0.00   698    1    100.0   30 
19/10/18  7:00a   12.4   12.4   10.1    95   11.7   0.0   ---  0.00   0.0   ---   12.4   12.6   12.6   13.6  1028.8  0.00   0.0   192     8.26    248     0.0  0.00   0.0   0.123   0.000   26.7    37    0.05   701    1    100.0   30 
19/10/18  7:30a   15.6   15.6   12.4    85   13.1   0.0   ---  0.00   0.0   ---   15.6   15.7   15.7   21.4  1028.6  0.00   0.0   314    13.50    367     0.5  0.11   0.9   0.057   0.000   26.8    37    0.00   703    1    100.0   30 
19/10/18  8:00a   18.3   18.3   15.7    69   12.5   0.0     N  0.00   8.0     N   18.3   18.3   18.3   25.3  1028.2  0.00   0.0   422    18.15    475     1.2  0.26   1.5   0.000   0.000   26.6    38    0.20   699    1    100.0   30 
19/10/18  8:30a   20.3   20.3   18.3    59   12.1   0.0     N  0.00   9.7     N   20.3   20.0   20.0   27.6  1028.0  0.00   0.0   538    23.14    587     1.8  0.39   2.1   0.000   0.042   26.5    39    0.00   701    1    100.0   30 
19/10/18  9:00a   21.4   21.4   20.3    55   12.0   3.2     N  1.61  16.1     N   21.4   20.7   20.7   28.4  1027.7  0.00   0.0   634    27.27    700     2.6  0.56   3.0   0.000   0.064   26.8    39    0.36   700    1    100.0   30 
19/10/18  9:30a   22.4   22.4   21.3    53   12.3   3.2     N  1.61  17.7   NNE   22.4   22.1   22.1   29.6  1027.3  0.00   0.0   712    30.62    789     3.3  0.71   3.9   0.000   0.084   27.1    39    0.00   701    1    100.0   30 
19/10/18 10:00a   22.6   23.0   22.4    51   11.9   3.2     N  1.61  17.7   NNE   22.6   22.2   22.2   28.4  1027.0  0.00   0.0   695    29.89    807     3.7  0.79   4.1   0.000   0.088   27.7    38    0.43   659    1     96.3   30 
19/10/18 10:30a   23.4   23.4   22.5    47   11.5   4.8     N  2.41  25.7   NNE   23.4   23.2   23.2   29.1  1026.4  0.00   0.0   682    29.33    926     4.1  0.88   5.3   0.000   0.106   27.7    38    0.00   699    1    100.0   30 
19/10/18 11:00a   24.4   24.4   23.4    48   12.7   4.8   NNE  2.41  22.5    NE   24.4   24.3   24.3   31.2  1025.6  0.00   0.0   893    38.40    914     5.6  1.20   5.9   0.000   0.126   27.8    38    0.53   702    1    100.0   30 
19/10/18 11:30a   24.4   24.9   24.4    48   12.7   6.4   NNE  3.22  27.4   NNE   24.4   24.3   24.3   31.1  1025.0  0.00   0.0   923    39.69    954     6.1  1.31   6.3   0.000   0.127   28.1    38    0.00   701    1    100.0   30 
19/10/18 12:00p   25.4   25.4   24.4    46   12.9   6.4   NNE  3.22  29.0     N   25.4   25.2   25.2   31.9  1024.6  0.00   0.0   954    41.03   1037     6.2  1.33   6.8   0.000   0.147   28.4    38    0.63   700    1    100.0   30 
19/10/18 12:30p   25.6   25.6   25.1    46   13.1   8.0   NNE  4.02  30.6   NNE   25.6   25.4   25.4   31.6  1024.3  0.00   0.0   894    38.45   1107     5.9  1.26   7.0   0.000   0.150   28.6    38    0.00   660    1     96.5   30 
19/10/18  1:00p   26.4   26.4   25.3    42   12.4   8.0   NNE  4.02  24.1   NNE   26.4   26.0   26.0   32.3  1024.0  0.00   0.0   905    38.92   1100     6.0  1.29   7.0   0.000   0.168   28.7    38    0.61   700    1    100.0   30 
19/10/18  1:30p   26.3   26.4   26.1    43   12.7   6.4   NNE  3.22  27.4     N   26.3   26.0   26.0   32.1  1023.2  0.00   0.0   692    29.76    997     4.5  0.96   6.1   0.000   0.166   28.8    38    0.00   703    1    100.0   30 
19/10/18  2:00p   26.9   26.9   26.3    39   11.8   8.0     N  4.02  33.8    NE   26.9   26.3   26.3   32.4  1022.8  0.00   0.0   813    34.96   1092     4.9  1.05   6.1   0.000   0.178   28.8    37    0.56   702    1    100.0   30 
19/10/18  2:30p   27.4   27.4   26.6    35   10.6   8.0   NNE  4.02  27.4     N   27.4   26.6   26.6   32.4  1022.6  0.00   0.0   675    29.03    962     3.9  0.84   4.8   0.000   0.189   28.9    37    0.00   700    1    100.0   30 
19/10/18  3:00p   27.3   27.4   27.2    34   10.0   6.4   NNE  3.22  22.5     N   27.3   26.4   26.4   32.2  1022.7  0.00   0.0   600    25.80    737     3.1  0.66   4.0   0.000   0.186   28.9    36    0.48   699    1    100.0   30 
19/10/18  3:30p   27.0   27.6   26.8    36   10.7   6.4   NNE  3.22  30.6   NNE   27.0   26.2   26.2   31.6  1022.2  0.00   0.0   455    19.57    773     2.2  0.47   3.2   0.000   0.181   29.1    35    0.00   701    1    100.0   30 
19/10/18  4:00p   26.7   27.1   26.7    36   10.4   8.0   NNE  4.02  25.7   NNE   26.7   25.9   25.9   29.7  1021.9  0.00   0.0   288    12.39    366     1.2  0.26   1.5   0.000   0.174   29.1    35    0.33   700    1    100.0   30 
19/10/18  4:30p   26.6   26.7   26.6    34    9.4   4.8   NNE  2.41  24.1     N   26.6   25.7   25.7   28.7  1021.7  0.00   0.0   208     8.95    244     0.8  0.17   1.0   0.000   0.171   28.9    35    0.00   698    1    100.0   30 
19/10/18  5:00p   26.3   26.6   26.3    35    9.6   3.2     N  1.61  16.1     N   26.3   25.6   25.6   27.6  1021.4  0.00   0.0   144     6.19    171     0.3  0.06   0.6   0.000   0.166   28.9    35    0.18   701    1    100.0   30 
19/10/18  5:30p   25.9   26.3   25.9    36    9.7   1.6     N  0.80  14.5   NNE   25.9   25.3   25.3   26.4  1021.3  0.00   0.0    93     4.00    121     0.0  0.00   0.0   0.000   0.159   28.8    35    0.00   700    1    100.0   30 
19/10/18  6:00p   25.6   25.9   25.6    37    9.8   0.0     N  0.00  12.9   NNE   25.6   24.9   24.9   24.1  1021.2  0.00   0.0    55     2.37     72     0.0  0.00   0.0   0.000   0.150   28.8    36    0.08   702    1    100.0   30 
19/10/18  6:30p   25.2   25.6   25.2    38    9.8   0.0   NNE  0.00  12.9   NNE   25.2   24.7   24.7   23.3  1021.4  0.00   0.0    16     0.69     35     0.0  0.00   0.0   0.000   0.142   28.8    36    0.00   700    1    100.0   30 
19/10/18  7:00p   24.4   25.2   24.4    40   10.0   0.0   ---  0.00   0.0   ---   24.4   23.9   23.9   22.4  1021.3  0.00   0.0     0     0.00      0     0.0  0.00   0.0   0.000   0.127   28.7    36    0.03   702    1    100.0   30 
19/10/18  7:30p   24.4   24.5   24.2    39    9.6   0.0   NNE  0.00   9.7   NNE   24.4   23.9   23.9   22.3  1020.8  0.00   0.0     0     0.00      0     0.0  0.00   0.0   0.000   0.127   28.6    36    0.00   701    1    100.0   30 
19/10/18  8:00p   24.4   24.6   24.4    38    9.2   0.0   NNE  0.00   3.2   NNE   24.4   23.9   23.9   22.3  1020.8  0.00   0.0     0     0.00      0     0.0  0.00   0.0   0.000   0.127   28.6    36    0.08   703    1    100.0   30 
19/10/18  8:30p   23.9   24.4   23.9    38    8.8   0.0   NNE  0.00   8.0   NNE   23.9   23.4   23.4   21.8  1020.5  0.00   0.0     0     0.00      0     0.0  0.00   0.0   0.000   0.117   28.6    36    0.00   699    1    100.0   30 
19/10/18  9:00p   24.9   24.9   23.9    34    7.9   1.6   NNE  0.80  16.1     N   24.9   24.3   24.3   22.6  1020.3  0.00   0.0     0     0.00      0     0.0  0.00   0.0   0.000   0.137   28.6    36    0.08   701    1    100.0   30 
19/10/18  9:30p   25.2   25.3   24.9    33    7.7   3.2   NNE  1.61  24.1   NNE   25.2   24.5   24.5   22.8  1019.9  0.00   0.0     0     0.00      0     0.0  0.00   0.0   0.000   0.142   28.6    35    0.00   698    1    100.0   30 
19/10/18 10:00p   25.1   25.2   25.1    33    7.7   3.2   NNE  1.61  19.3   ENE   25.1   24.5   24.5   22.8  1019.8  0.00   0.0     0     0.00      0     0.0  0.00   0.0   0.000   0.141   28.5    35    0.10   701    1    100.0   30 
19/10/18 10:30p   24.9   25.1   24.9    34    7.9   3.2   NNE  1.61  17.7    NE   24.9   24.3   24.3   22.6  1019.6  0.00   0.0     0     0.00      0     0.0  0.00   0.0   0.000   0.137   28.5    35    0.00   702    1    100.0   30 
19/10/18 11:00p   24.3   24.9   24.3    36    8.2   1.6     N  0.80  16.1     N   24.3   23.7   23.7   22.0  1019.4  0.00   0.0     0     0.00      0     0.0  0.00   0.0   0.000   0.124   28.5    35    0.08   701    1    100.0   30 
19/10/18 11:30p   23.9   24.3   23.9    37    8.4   3.2     N  1.61  16.1   NNE   23.9   23.4   23.4   21.8  1019.0  0.00   0.0     0     0.00      0     0.0  0.00   0.0   0.000   0.117   28.5    35    0.00   702    1    100.0   30 
20/10/18 12:00a   24.1   24.1   23.9    36    8.1   4.8   NNE  2.41  17.7    NE   24.1   23.4   23.4   21.8  1019.4  0.00   0.0     0     0.00      0     0.0  0.00   0.0   0.000   0.119   28.5    35    0.10   698    1    100.0   30 
20/10/18 12:30a   23.2   24.1   23.2    39    8.4   1.6     W  0.80  14.5    SW   23.2   22.6   22.6   20.9  1019.4  0.00   0.0     0     0.00      0     0.0  0.00   0.0   0.000   0.101   28.5    34    0.00   701    1    100.0   30 
20/10/18  1:00a   22.2   23.2   22.2    42    8.6   0.0   ---  0.00   0.0   ---   22.2   21.2   21.2   19.6  1018.6  0.00   0.0     0     0.00      0     0.0  0.00   0.0   0.000   0.080   28.5    34    0.08   657    1     96.1   30 
20/10/18  1:30a   21.3   22.2   21.3    45    8.9   0.0   ---  0.00   0.0   ---   21.3   20.1   20.1   18.5  1018.4  0.00   0.0     0     0.00      0     0.0  0.00   0.0   0.000   0.061   28.4    34    0.00   700    1    100.0   30 
20/10/18  2:00a   21.7   21.7   20.9    43    8.5   1.6   WSW  0.80  14.5    SW   21.7   20.5   20.5   18.9  1019.6  0.00   0.0     0     0.00      0     0.0  0.00   0.0   0.000   0.069   28.4    34    0.05   701    1    100.0   30 
20/10/18  2:30a   19.3   22.5   19.3    64   12.3   6.4    SW  3.22  22.5    SW   19.3   19.2   19.2   17.7  1021.3  0.00   0.0     0     0.00      0     0.0  0.00   0.0   0.000   0.020   28.5    34    0.00   697    1    100.0   30 
20/10/18  3:00a   16.2   19.2   16.2    78   12.4   6.4    SW  3.22  24.1   SSE   16.2   16.2   16.0   14.6  1023.0  0.00   0.0     0     0.00      0     0.0  0.00   0.0   0.044   0.000   28.5    35    0.05   702    1    100.0   30 
20/10/18  3:30a   14.6   16.2   14.6    84   11.9   4.8    SW  2.41  20.9   WSW   14.6   14.5   14.4   12.9  1023.6  0.51   1.3     0     0.00      0     0.0  0.00   0.0   0.079   0.000   28.5    35    0.00   700    1    100.0   30 
20/10/18  4:00a   13.9   14.6   13.9    89   12.2   0.0   SSW  0.00  11.3   SSW   13.9   14.0   14.0   12.5  1024.0  0.51   1.3     0     0.00      0     0.0  0.00   0.0   0.091   0.000   28.5    35    0.03   699    1    100.0   30 
20/10/18  4:30a   13.4   13.9   13.4    89   11.6   1.6   SSW  0.80  14.5     W   13.4   13.4   13.4   11.9  1024.2  0.25   1.3     0     0.00      0     0.0  0.00   0.0   0.103   0.000   28.4    35    0.00   703    1    100.0   30 
20/10/18  5:00a   13.1   13.4   13.1    89   11.3   0.0   ---  0.00   0.0   ---   13.1   13.2   13.2   11.7  1024.6  0.00   0.0     0     0.00      0     0.0  0.00   0.0   0.109   0.000   28.5    36    0.00   680    1     99.4   30 
20/10/18  5:30a   12.8   13.1   12.8    90   11.2   0.0   WSW  0.00   8.0   WSW   12.8   12.8   12.8   11.3  1025.2  0.25   0.0     0     0.00      0     0.0  0.00   0.0   0.116   0.000   28.4    36    0.00   701    1    100.0   30 
20/10/18  6:00a   12.3   12.8   12.3    89   10.5   1.6   WSW  0.80  14.5    SW   12.3   12.3   12.3   10.8  1026.2  0.25   0.0     0     0.00      0     0.0  0.00   0.0   0.126   0.000   28.4    36    0.00   700    1    100.0   30 
20/10/18  6:30a   12.2   12.3   12.2    89   10.4   0.0   WSW  0.00   4.8   WSW   12.2   12.2   12.2   10.8  1026.7  0.00   0.0     8     0.34     12     0.0  0.00   0.0   0.128   0.000   28.4    36    0.00   700    1    100.0   30 
20/10/18  7:00a   12.2   12.2   12.1    88   10.2   0.0   WSW  0.00   6.4   WSW   12.2   12.2   12.2   10.8  1026.9  0.51   5.8    18     0.77     81     0.0  0.00   0.0   0.128   0.000   28.3    36    0.00   701    1    100.0   30 
20/10/18  7:30a   11.9   12.2   11.9    90   10.4   0.0   SSW  0.00  12.9     W   11.9   12.0   12.0   12.4  1027.0  1.02   4.6    58     2.49     95     0.0  0.00   0.0   0.133   0.000   28.2    35    0.00   701    1    100.0   30 
20/10/18  8:00a   11.8   11.9   11.8    91   10.4   0.0    SW  0.00   3.2    SW   11.8   11.9   11.9   11.6  1027.1  0.25   3.0    35     1.51     49     0.0  0.00   0.0   0.135   0.000   28.1    35    0.03   701    1    100.0   30 
20/10/18  8:30a   11.7   11.8   11.7    92   10.4   0.0   ---  0.00   0.0   ---   11.7   11.8   11.8   11.2  1028.0  1.78   6.6    30     1.29     46     0.0  0.00   0.0   0.139   0.000   28.1    36    0.00   679    1     99.3   30 
20/10/18  9:00a   11.2   11.7   11.2    92    9.9   0.0    SW  0.00   1.6    SW   11.2   11.3   11.3   10.7  1028.0  2.03   9.9    30     1.29     51     0.0  0.00   0.0   0.149   0.000   27.9    36    0.03   701    1    100.0   30 
20/10/18  9:30a   10.9   11.2   10.9    92    9.7   0.0   ---  0.00   0.0   ---   10.9   11.1   11.1   10.9  1027.9  2.03  13.5    56     2.41     90     0.0  0.00   0.0   0.154   0.000   27.8    36    0.00   699    1    100.0   30 
20/10/18 10:00a   10.7   10.9   10.7    92    9.5   0.0    SW  0.00   4.8    SW   10.7   10.9   10.9   10.6  1026.9  0.51   3.6    56     2.41     79     0.0  0.00   0.0   0.159   0.000   27.8    35    0.03   703    1    100.0   30 
20/10/18 10:30a   11.0   11.0   10.7    93    9.9   0.0   ---  0.00   0.0   ---   11.0   11.2   11.2   11.3  1027.6  0.51   5.1    91     3.91    181     0.2  0.04   0.9   0.153   0.000   27.8    35    0.00   700    1    100.0   30 
20/10/18 11:00a   11.2   11.2   11.0    93   10.1   0.0   ---  0.00   0.0   ---   11.2   11.3   11.3   11.5  1027.7  0.00   0.0    93     4.00    179     0.3  0.06   1.0   0.149   0.000   27.8    36    0.05   699    1    100.0   30 
20/10/18 11:30a   11.7   11.7   11.2    93   10.6   0.0   ---  0.00   0.0   ---   11.7   11.8   11.8   12.8  1027.4  0.00   0.0   146     6.28    220     0.7  0.15   1.3   0.138   0.000   27.8    35    0.00   703    1    100.0   30 
20/10/18 12:00p   12.6   12.6   11.7    90   11.0   0.0    SW  0.00   6.4    SW   12.6   12.6   12.6   15.9  1027.3  0.00   0.0   332    14.28    459     2.1  0.45   2.9   0.120   0.000   27.8    35    0.10   702    1    100.0   30 
20/10/18 12:30p   13.5   13.5   12.6    82   10.5   0.0    SW  0.00  11.3    SW   13.5   13.4   13.4   16.9  1027.5  0.00   0.0   364    15.65    464     2.4  0.51   3.1   0.101   0.000   27.8    36    0.00   703    1    100.0   30 
20/10/18  1:00p   14.3   14.3   13.4    76   10.2   0.0    SW  0.00   9.7    SW   14.3   14.1   14.1   18.4  1027.0  0.00   0.0   439    18.88    575     3.0  0.64   5.0   0.083   0.000   27.9    35    0.20   702    1    100.0   30 
20/10/18  1:30p   15.5   15.7   14.3    67    9.4   0.0   SSE  0.00   9.7     S   15.5   15.1   15.1   20.1  1027.1  0.25   0.0   527    22.66   1076     3.8  0.81   6.2   0.059   0.000   28.2    35    0.00   701    1    100.0   30 
20/10/18  2:00p   14.2   15.5   14.1    70    8.8   3.2    SW  1.61  14.5     S   14.2   13.7   13.7   14.4  1027.7  0.00   0.0   128     5.50    230     0.6  0.13   1.3   0.087   0.000   28.3    35    0.20   698    1    100.0   30 
20/10/18  2:30p   15.6   15.6   13.9    68    9.7   3.2     S  1.61  19.3     S   15.6   15.2   15.2   19.9  1027.6  0.00   0.0   462    19.87    800     2.4  0.51   3.9   0.058   0.000   28.3    35    0.00   702    1    100.0   30 
20/10/18  3:00p   15.6   16.2   15.6    64    8.8   3.2     S  1.61  17.7    SW   15.6   15.1   15.1   20.4  1027.6  0.00   0.0   518    22.28    882     2.7  0.58   4.1   0.057   0.000   28.3    34    0.28   699    1    100.0   30 
20/10/18  3:30p   13.1   15.6   13.1    83   10.2   3.2    SW  1.61  19.3   SSE   13.1   12.9   12.9   14.2  1028.3  1.02  39.1   136     5.85    283     0.3  0.06   1.2   0.110   0.000   28.4    34    0.00   701    1    100.0   30 
20/10/18  4:00p   13.2   13.2   12.6    88   11.3   0.0   ---  0.00   0.0   ---   13.2   13.2   13.2   16.8  1028.4  0.25   2.0   271    11.65    584     0.8  0.17   1.4   0.106   0.000   28.3    34    0.10   676    1     98.8   30 
20/10/18  4:30p   14.5   14.6   13.2    74    9.9   1.6   WSW  0.80  19.3     S   14.5   14.2   14.2   19.0  1028.9  0.00   0.0   383    16.47    540     0.8  0.17   1.3   0.080   0.000   28.3    34    0.00   701    1    100.0   30 
20/10/18  5:00p   14.0   14.5   14.0    70    8.6   3.2     S  1.61  20.9   SSE   14.0   13.6   13.6   14.4  1029.3  0.00   0.0    86     3.70    195     0.0  0.00   0.0   0.090   0.000   28.3    34    0.13   701    1    100.0   30 
20/10/18  5:30p   13.1   14.0   13.1    77    9.2   1.6   SSW  0.80  16.1   WSW   13.1   12.8   12.8   13.0  1029.7  0.00   0.0    51     2.19     58     0.0  0.00   0.0   0.109   0.000   28.2    34    0.00   698    1    100.0   30 
20/10/18  6:00p   13.0   13.1   12.9    76    8.9   0.0   ---  0.00   0.0   ---   13.0   12.7   12.7   11.6  1030.3  0.00   0.0    25     1.08     40     0.0  0.00   0.0   0.111   0.000   28.1    34    0.03   702    1    100.0   30 
20/10/18  6:30p   12.8   13.2   12.8    78    9.1   0.0   SSW  0.00  12.9   SSW   12.8   12.6   12.6   11.3  1031.0  0.00   0.0    13     0.56     23     0.0  0.00   0.0   0.115   0.000   27.9    34    0.00   699    1    100.0   30